$GPRMC,000000.000,V,5205.167,N,01638.736,E,0.00,0.00,010070,,*1E $GPGGA,000000.000,5205.167,N,01638.736,E,0,00,0.0,0.000,M,0.0,M,,*61 $GPRMC,000000.000,V,5205.183,N,01638.752,E,0.00,0.00,010070,,*16 $GPGGA,000000.000,5205.183,N,01638.752,E,0,00,0.0,0.000,M,0.0,M,,*69 $GPRMC,000000.000,V,5205.194,N,01638.764,E,0.00,0.00,010070,,*15 $GPGGA,000000.000,5205.194,N,01638.764,E,0,00,0.0,0.000,M,0.0,M,,*6A $GPRMC,000000.000,V,5205.201,N,01638.772,E,0.00,0.00,010070,,*1D $GPGGA,000000.000,5205.201,N,01638.772,E,0,00,0.0,0.000,M,0.0,M,,*62 $GPRMC,000000.000,V,5205.209,N,01638.773,E,0.00,0.00,010070,,*14 $GPGGA,000000.000,5205.209,N,01638.773,E,0,00,0.0,0.000,M,0.0,M,,*6B $GPRMC,000000.000,V,5205.217,N,01638.764,E,0.00,0.00,010070,,*1D $GPGGA,000000.000,5205.217,N,01638.764,E,0,00,0.0,0.000,M,0.0,M,,*62 $GPRMC,000000.000,V,5205.230,N,01638.779,E,0.00,0.00,010070,,*14 $GPGGA,000000.000,5205.230,N,01638.779,E,0,00,0.0,0.000,M,0.0,M,,*6B $GPRMC,000000.000,V,5205.272,N,01638.834,E,0.00,0.00,010070,,*14 $GPGGA,000000.000,5205.272,N,01638.834,E,0,00,0.0,0.000,M,0.0,M,,*6B $GPRMC,000000.000,V,5205.301,N,01638.894,E,0.00,0.00,010070,,*1B $GPGGA,000000.000,5205.301,N,01638.894,E,0,00,0.0,0.000,M,0.0,M,,*64 $GPRMC,000000.000,V,5205.317,N,01638.946,E,0.00,0.00,010070,,*12 $GPGGA,000000.000,5205.317,N,01638.946,E,0,00,0.0,0.000,M,0.0,M,,*6D $GPRMC,000000.000,V,5205.372,N,01639.026,E,0.00,0.00,010070,,*1F $GPGGA,000000.000,5205.372,N,01639.026,E,0,00,0.0,0.000,M,0.0,M,,*60 $GPRMC,000000.000,V,5205.381,N,01639.044,E,0.00,0.00,010070,,*17 $GPGGA,000000.000,5205.381,N,01639.044,E,0,00,0.0,0.000,M,0.0,M,,*68 $GPRMC,000000.000,V,5205.628,N,01639.349,E,0.00,0.00,010070,,*1F $GPGGA,000000.000,5205.628,N,01639.349,E,0,00,0.0,0.000,M,0.0,M,,*60 $GPRMC,000000.000,V,5205.626,N,01639.363,E,0.00,0.00,010070,,*19 $GPGGA,000000.000,5205.626,N,01639.363,E,0,00,0.0,0.000,M,0.0,M,,*66 $GPRMC,000000.000,V,5205.618,N,01639.382,E,0.00,0.00,010070,,*1B $GPGGA,000000.000,5205.618,N,01639.382,E,0,00,0.0,0.000,M,0.0,M,,*64 $GPRMC,000000.000,V,5205.655,N,01639.432,E,0.00,0.00,010070,,*1E $GPGGA,000000.000,5205.655,N,01639.432,E,0,00,0.0,0.000,M,0.0,M,,*61 $GPRMC,000000.000,V,5205.703,N,01639.531,E,0.00,0.00,010070,,*1E $GPGGA,000000.000,5205.703,N,01639.531,E,0,00,0.0,0.000,M,0.0,M,,*61 $GPRMC,000000.000,V,5205.787,N,01639.710,E,0.00,0.00,010070,,*13 $GPGGA,000000.000,5205.787,N,01639.710,E,0,00,0.0,0.000,M,0.0,M,,*6C $GPRMC,000000.000,V,5205.864,N,01639.860,E,0.00,0.00,010070,,*19 $GPGGA,000000.000,5205.864,N,01639.860,E,0,00,0.0,0.000,M,0.0,M,,*66 $GPRMC,000000.000,V,5205.923,N,01640.396,E,0.00,0.00,010070,,*17 $GPGGA,000000.000,5205.923,N,01640.396,E,0,00,0.0,0.000,M,0.0,M,,*68 $GPRMC,000000.000,V,5205.930,N,01640.465,E,0.00,0.00,010070,,*1E $GPGGA,000000.000,5205.930,N,01640.465,E,0,00,0.0,0.000,M,0.0,M,,*61 $GPRMC,000000.000,V,5205.941,N,01640.502,E,0.00,0.00,010070,,*18 $GPGGA,000000.000,5205.941,N,01640.502,E,0,00,0.0,0.000,M,0.0,M,,*67 $GPRMC,000000.000,V,5206.044,N,01640.676,E,0.00,0.00,010070,,*17 $GPGGA,000000.000,5206.044,N,01640.676,E,0,00,0.0,0.000,M,0.0,M,,*68 $GPRMC,000000.000,V,5206.261,N,01641.103,E,0.00,0.00,010070,,*16 $GPGGA,000000.000,5206.261,N,01641.103,E,0,00,0.0,0.000,M,0.0,M,,*69 $GPRMC,000000.000,V,5206.390,N,01641.359,E,0.00,0.00,010070,,*14 $GPGGA,000000.000,5206.390,N,01641.359,E,0,00,0.0,0.000,M,0.0,M,,*6B $GPRMC,000000.000,V,5206.527,N,01641.632,E,0.00,0.00,010070,,*16 $GPGGA,000000.000,5206.527,N,01641.632,E,0,00,0.0,0.000,M,0.0,M,,*69 $GPRMC,000000.000,V,5206.596,N,01641.770,E,0.00,0.00,010070,,*1B $GPGGA,000000.000,5206.596,N,01641.770,E,0,00,0.0,0.000,M,0.0,M,,*64 $GPRMC,000000.000,V,5206.609,N,01641.824,E,0.00,0.00,010070,,*10 $GPGGA,000000.000,5206.609,N,01641.824,E,0,00,0.0,0.000,M,0.0,M,,*6F $GPRMC,000000.000,V,5206.610,N,01641.840,E,0.00,0.00,010070,,*1A $GPGGA,000000.000,5206.610,N,01641.840,E,0,00,0.0,0.000,M,0.0,M,,*65 $GPRMC,000000.000,V,5206.612,N,01641.855,E,0.00,0.00,010070,,*1C $GPGGA,000000.000,5206.612,N,01641.855,E,0,00,0.0,0.000,M,0.0,M,,*63 $GPRMC,000000.000,V,5206.604,N,01641.924,E,0.00,0.00,010070,,*1C $GPGGA,000000.000,5206.604,N,01641.924,E,0,00,0.0,0.000,M,0.0,M,,*63 $GPRMC,000000.000,V,5206.613,N,01641.958,E,0.00,0.00,010070,,*11 $GPGGA,000000.000,5206.613,N,01641.958,E,0,00,0.0,0.000,M,0.0,M,,*6E $GPRMC,000000.000,V,5206.669,N,01642.095,E,0.00,0.00,010070,,*17 $GPGGA,000000.000,5206.669,N,01642.095,E,0,00,0.0,0.000,M,0.0,M,,*68 $GPRMC,000000.000,V,5206.722,N,01642.227,E,0.00,0.00,010070,,*12 $GPGGA,000000.000,5206.722,N,01642.227,E,0,00,0.0,0.000,M,0.0,M,,*6D $GPRMC,000000.000,V,5206.710,N,01642.281,E,0.00,0.00,010070,,*1F $GPGGA,000000.000,5206.710,N,01642.281,E,0,00,0.0,0.000,M,0.0,M,,*60 $GPRMC,000000.000,V,5206.780,N,01642.612,E,0.00,0.00,010070,,*18 $GPGGA,000000.000,5206.780,N,01642.612,E,0,00,0.0,0.000,M,0.0,M,,*67 $GPRMC,000000.000,V,5206.866,N,01642.969,E,0.00,0.00,010070,,*1C $GPGGA,000000.000,5206.866,N,01642.969,E,0,00,0.0,0.000,M,0.0,M,,*63 $GPRMC,000000.000,V,5206.961,N,01643.288,E,0.00,0.00,010070,,*1F $GPGGA,000000.000,5206.961,N,01643.288,E,0,00,0.0,0.000,M,0.0,M,,*60 $GPRMC,000000.000,V,5207.001,N,01643.391,E,0.00,0.00,010070,,*18 $GPGGA,000000.000,5207.001,N,01643.391,E,0,00,0.0,0.000,M,0.0,M,,*67 $GPRMC,000000.000,V,5207.074,N,01643.541,E,0.00,0.00,010070,,*11 $GPGGA,000000.000,5207.074,N,01643.541,E,0,00,0.0,0.000,M,0.0,M,,*6E $GPRMC,000000.000,V,5207.100,N,01643.608,E,0.00,0.00,010070,,*1D $GPGGA,000000.000,5207.100,N,01643.608,E,0,00,0.0,0.000,M,0.0,M,,*62 $GPRMC,000000.000,V,5207.123,N,01643.661,E,0.00,0.00,010070,,*13 $GPGGA,000000.000,5207.123,N,01643.661,E,0,00,0.0,0.000,M,0.0,M,,*6C $GPRMC,000000.000,V,5207.140,N,01643.726,E,0.00,0.00,010070,,*14 $GPGGA,000000.000,5207.140,N,01643.726,E,0,00,0.0,0.000,M,0.0,M,,*6B $GPRMC,000000.000,V,5207.152,N,01643.786,E,0.00,0.00,010070,,*1D $GPGGA,000000.000,5207.152,N,01643.786,E,0,00,0.0,0.000,M,0.0,M,,*62 $GPRMC,000000.000,V,5207.164,N,01643.849,E,0.00,0.00,010070,,*14 $GPGGA,000000.000,5207.164,N,01643.849,E,0,00,0.0,0.000,M,0.0,M,,*6B $GPRMC,000000.000,V,5207.162,N,01643.895,E,0.00,0.00,010070,,*13 $GPGGA,000000.000,5207.162,N,01643.895,E,0,00,0.0,0.000,M,0.0,M,,*6C $GPRMC,000000.000,V,5207.169,N,01643.929,E,0.00,0.00,010070,,*1E $GPGGA,000000.000,5207.169,N,01643.929,E,0,00,0.0,0.000,M,0.0,M,,*61 $GPRMC,000000.000,V,5207.185,N,01643.969,E,0.00,0.00,010070,,*18 $GPGGA,000000.000,5207.185,N,01643.969,E,0,00,0.0,0.000,M,0.0,M,,*67 $GPRMC,000000.000,V,5207.204,N,01644.038,E,0.00,0.00,010070,,*18 $GPGGA,000000.000,5207.204,N,01644.038,E,0,00,0.0,0.000,M,0.0,M,,*67 $GPRMC,000000.000,V,5207.237,N,01644.118,E,0.00,0.00,010070,,*1B $GPGGA,000000.000,5207.237,N,01644.118,E,0,00,0.0,0.000,M,0.0,M,,*64 $GPRMC,000000.000,V,5207.251,N,01644.166,E,0.00,0.00,010070,,*12 $GPGGA,000000.000,5207.251,N,01644.166,E,0,00,0.0,0.000,M,0.0,M,,*6D $GPRMC,000000.000,V,5207.272,N,01644.219,E,0.00,0.00,010070,,*18 $GPGGA,000000.000,5207.272,N,01644.219,E,0,00,0.0,0.000,M,0.0,M,,*67 $GPRMC,000000.000,V,5207.293,N,01644.254,E,0.00,0.00,010070,,*1E $GPGGA,000000.000,5207.293,N,01644.254,E,0,00,0.0,0.000,M,0.0,M,,*61 $GPRMC,000000.000,V,5207.311,N,01644.285,E,0.00,0.00,010070,,*19 $GPGGA,000000.000,5207.311,N,01644.285,E,0,00,0.0,0.000,M,0.0,M,,*66 $GPRMC,000000.000,V,5207.325,N,01644.309,E,0.00,0.00,010070,,*1B $GPGGA,000000.000,5207.325,N,01644.309,E,0,00,0.0,0.000,M,0.0,M,,*64 $GPRMC,000000.000,V,5207.339,N,01644.332,E,0.00,0.00,010070,,*1E $GPGGA,000000.000,5207.339,N,01644.332,E,0,00,0.0,0.000,M,0.0,M,,*61 $GPRMC,000000.000,V,5207.366,N,01644.372,E,0.00,0.00,010070,,*10 $GPGGA,000000.000,5207.366,N,01644.372,E,0,00,0.0,0.000,M,0.0,M,,*6F $GPRMC,000000.000,V,5207.384,N,01644.399,E,0.00,0.00,010070,,*19 $GPGGA,000000.000,5207.384,N,01644.399,E,0,00,0.0,0.000,M,0.0,M,,*66 $GPRMC,000000.000,V,5207.453,N,01644.466,E,0.00,0.00,010070,,*13 $GPGGA,000000.000,5207.453,N,01644.466,E,0,00,0.0,0.000,M,0.0,M,,*6C $GPRMC,000000.000,V,5207.501,N,01644.510,E,0.00,0.00,010070,,*15 $GPGGA,000000.000,5207.501,N,01644.510,E,0,00,0.0,0.000,M,0.0,M,,*6A $GPRMC,000000.000,V,5207.652,N,01644.635,E,0.00,0.00,010070,,*14 $GPGGA,000000.000,5207.652,N,01644.635,E,0,00,0.0,0.000,M,0.0,M,,*6B $GPRMC,000000.000,V,5207.892,N,01644.838,E,0.00,0.00,010070,,*15 $GPGGA,000000.000,5207.892,N,01644.838,E,0,00,0.0,0.000,M,0.0,M,,*6A $GPRMC,000000.000,V,5208.159,N,01645.067,E,0.00,0.00,010070,,*17 $GPGGA,000000.000,5208.159,N,01645.067,E,0,00,0.0,0.000,M,0.0,M,,*68 $GPRMC,000000.000,V,5208.225,N,01645.121,E,0.00,0.00,010070,,*1C $GPGGA,000000.000,5208.225,N,01645.121,E,0,00,0.0,0.000,M,0.0,M,,*63 $GPRMC,000000.000,V,5208.321,N,01645.201,E,0.00,0.00,010070,,*18 $GPGGA,000000.000,5208.321,N,01645.201,E,0,00,0.0,0.000,M,0.0,M,,*67 $GPRMC,000000.000,V,5208.420,N,01645.311,E,0.00,0.00,010070,,*1E $GPGGA,000000.000,5208.420,N,01645.311,E,0,00,0.0,0.000,M,0.0,M,,*61 $GPRMC,000000.000,V,5208.470,N,01645.369,E,0.00,0.00,010070,,*14 $GPGGA,000000.000,5208.470,N,01645.369,E,0,00,0.0,0.000,M,0.0,M,,*6B $GPRMC,000000.000,V,5208.500,N,01645.396,E,0.00,0.00,010070,,*12 $GPGGA,000000.000,5208.500,N,01645.396,E,0,00,0.0,0.000,M,0.0,M,,*6D $GPRMC,000000.000,V,5208.541,N,01645.396,E,0.00,0.00,010070,,*17 $GPGGA,000000.000,5208.541,N,01645.396,E,0,00,0.0,0.000,M,0.0,M,,*68 $GPRMC,000000.000,V,5208.556,N,01645.551,E,0.00,0.00,010070,,*1C $GPGGA,000000.000,5208.556,N,01645.551,E,0,00,0.0,0.000,M,0.0,M,,*63 $GPRMC,000000.000,V,5208.572,N,01645.684,E,0.00,0.00,010070,,*11 $GPGGA,000000.000,5208.572,N,01645.684,E,0,00,0.0,0.000,M,0.0,M,,*6E $GPRMC,000000.000,V,5208.580,N,01645.711,E,0.00,0.00,010070,,*11 $GPGGA,000000.000,5208.580,N,01645.711,E,0,00,0.0,0.000,M,0.0,M,,*6E $GPRMC,000000.000,V,5208.588,N,01645.731,E,0.00,0.00,010070,,*1B $GPGGA,000000.000,5208.588,N,01645.731,E,0,00,0.0,0.000,M,0.0,M,,*64 $GPRMC,000000.000,V,5208.596,N,01645.751,E,0.00,0.00,010070,,*12 $GPGGA,000000.000,5208.596,N,01645.751,E,0,00,0.0,0.000,M,0.0,M,,*6D $GPRMC,000000.000,V,5208.593,N,01645.799,E,0.00,0.00,010070,,*13 $GPGGA,000000.000,5208.593,N,01645.799,E,0,00,0.0,0.000,M,0.0,M,,*6C $GPRMC,000000.000,V,5208.616,N,01645.900,E,0.00,0.00,010070,,*13 $GPGGA,000000.000,5208.616,N,01645.900,E,0,00,0.0,0.000,M,0.0,M,,*6C $GPRMC,000000.000,V,5208.626,N,01645.993,E,0.00,0.00,010070,,*1A $GPGGA,000000.000,5208.626,N,01645.993,E,0,00,0.0,0.000,M,0.0,M,,*65 $GPRMC,000000.000,V,5208.617,N,01646.005,E,0.00,0.00,010070,,*1D $GPGGA,000000.000,5208.617,N,01646.005,E,0,00,0.0,0.000,M,0.0,M,,*62 $GPRMC,000000.000,V,5208.604,N,01646.042,E,0.00,0.00,010070,,*1C $GPGGA,000000.000,5208.604,N,01646.042,E,0,00,0.0,0.000,M,0.0,M,,*63 $GPRMC,000000.000,V,5208.573,N,01646.090,E,0.00,0.00,010070,,*10 $GPGGA,000000.000,5208.573,N,01646.090,E,0,00,0.0,0.000,M,0.0,M,,*6F $GPRMC,000000.000,V,5208.562,N,01646.101,E,0.00,0.00,010070,,*19 $GPGGA,000000.000,5208.562,N,01646.101,E,0,00,0.0,0.000,M,0.0,M,,*66 $GPRMC,000000.000,V,5208.550,N,01646.103,E,0.00,0.00,010070,,*1A $GPGGA,000000.000,5208.550,N,01646.103,E,0,00,0.0,0.000,M,0.0,M,,*65 $GPRMC,000000.000,V,5208.528,N,01646.099,E,0.00,0.00,010070,,*17 $GPGGA,000000.000,5208.528,N,01646.099,E,0,00,0.0,0.000,M,0.0,M,,*68 $GPRMC,000000.000,V,5208.453,N,01646.091,E,0.00,0.00,010070,,*12 $GPGGA,000000.000,5208.453,N,01646.091,E,0,00,0.0,0.000,M,0.0,M,,*6D $GPRMC,000000.000,V,5208.375,N,01646.068,E,0.00,0.00,010070,,*17 $GPGGA,000000.000,5208.375,N,01646.068,E,0,00,0.0,0.000,M,0.0,M,,*68 $GPRMC,000000.000,V,5208.167,N,01646.003,E,0.00,0.00,010070,,*1B $GPGGA,000000.000,5208.167,N,01646.003,E,0,00,0.0,0.000,M,0.0,M,,*64 $GPRMC,000000.000,V,5208.073,N,01646.027,E,0.00,0.00,010070,,*19 $GPGGA,000000.000,5208.073,N,01646.027,E,0,00,0.0,0.000,M,0.0,M,,*66 $GPRMC,000000.000,V,5208.027,N,01646.040,E,0.00,0.00,010070,,*19 $GPGGA,000000.000,5208.027,N,01646.040,E,0,00,0.0,0.000,M,0.0,M,,*66 $GPRMC,000000.000,V,5207.990,N,01646.062,E,0.00,0.00,010070,,*13 $GPGGA,000000.000,5207.990,N,01646.062,E,0,00,0.0,0.000,M,0.0,M,,*6C $GPRMC,000000.000,V,5207.735,N,01646.225,E,0.00,0.00,010070,,*13 $GPGGA,000000.000,5207.735,N,01646.225,E,0,00,0.0,0.000,M,0.0,M,,*6C $GPRMC,000000.000,V,5207.620,N,01646.306,E,0.00,0.00,010070,,*16 $GPGGA,000000.000,5207.620,N,01646.306,E,0,00,0.0,0.000,M,0.0,M,,*69 $GPRMC,000000.000,V,5207.373,N,01646.594,E,0.00,0.00,010070,,*18 $GPGGA,000000.000,5207.373,N,01646.594,E,0,00,0.0,0.000,M,0.0,M,,*67 $GPRMC,000000.000,V,5207.205,N,01646.797,E,0.00,0.00,010070,,*19 $GPGGA,000000.000,5207.205,N,01646.797,E,0,00,0.0,0.000,M,0.0,M,,*66 $GPRMC,000000.000,V,5207.114,N,01646.839,E,0.00,0.00,010070,,*11 $GPGGA,000000.000,5207.114,N,01646.839,E,0,00,0.0,0.000,M,0.0,M,,*6E $GPRMC,000000.000,V,5207.057,N,01646.829,E,0.00,0.00,010070,,*16 $GPGGA,000000.000,5207.057,N,01646.829,E,0,00,0.0,0.000,M,0.0,M,,*69 $GPRMC,000000.000,V,5207.045,N,01646.820,E,0.00,0.00,010070,,*1C $GPGGA,000000.000,5207.045,N,01646.820,E,0,00,0.0,0.000,M,0.0,M,,*63 $GPRMC,000000.000,V,5207.034,N,01646.838,E,0.00,0.00,010070,,*13 $GPGGA,000000.000,5207.034,N,01646.838,E,0,00,0.0,0.000,M,0.0,M,,*6C $GPRMC,000000.000,V,5207.006,N,01646.915,E,0.00,0.00,010070,,*1C $GPGGA,000000.000,5207.006,N,01646.915,E,0,00,0.0,0.000,M,0.0,M,,*63 $GPRMC,000000.000,V,5206.927,N,01647.089,E,0.00,0.00,010070,,*1A $GPGGA,000000.000,5206.927,N,01647.089,E,0,00,0.0,0.000,M,0.0,M,,*65 $GPRMC,000000.000,V,5206.726,N,01647.563,E,0.00,0.00,010070,,*14 $GPGGA,000000.000,5206.726,N,01647.563,E,0,00,0.0,0.000,M,0.0,M,,*6B $GPRMC,000000.000,V,5206.636,N,01647.695,E,0.00,0.00,010070,,*1E $GPGGA,000000.000,5206.636,N,01647.695,E,0,00,0.0,0.000,M,0.0,M,,*61 $GPRMC,000000.000,V,5206.399,N,01648.065,E,0.00,0.00,010070,,*18 $GPGGA,000000.000,5206.399,N,01648.065,E,0,00,0.0,0.000,M,0.0,M,,*67 $GPRMC,000000.000,V,5206.255,N,01648.293,E,0.00,0.00,010070,,*12 $GPGGA,000000.000,5206.255,N,01648.293,E,0,00,0.0,0.000,M,0.0,M,,*6D $GPRMC,000000.000,V,5206.144,N,01648.308,E,0.00,0.00,010070,,*12 $GPGGA,000000.000,5206.144,N,01648.308,E,0,00,0.0,0.000,M,0.0,M,,*6D $GPRMC,000000.000,V,5206.027,N,01648.275,E,0.00,0.00,010070,,*1D $GPGGA,000000.000,5206.027,N,01648.275,E,0,00,0.0,0.000,M,0.0,M,,*62 $GPRMC,000000.000,V,5205.826,N,01648.193,E,0.00,0.00,010070,,*1C $GPGGA,000000.000,5205.826,N,01648.193,E,0,00,0.0,0.000,M,0.0,M,,*63 $GPRMC,000000.000,V,5205.641,N,01648.092,E,0.00,0.00,010070,,*13 $GPGGA,000000.000,5205.641,N,01648.092,E,0,00,0.0,0.000,M,0.0,M,,*6C $GPRMC,000000.000,V,5205.268,N,01647.878,E,0.00,0.00,010070,,*1F $GPGGA,000000.000,5205.268,N,01647.878,E,0,00,0.0,0.000,M,0.0,M,,*60 $GPRMC,000000.000,V,5204.878,N,01647.637,E,0.00,0.00,010070,,*10 $GPGGA,000000.000,5204.878,N,01647.637,E,0,00,0.0,0.000,M,0.0,M,,*6F $GPRMC,000000.000,V,5204.942,N,01647.359,E,0.00,0.00,010070,,*15 $GPGGA,000000.000,5204.942,N,01647.359,E,0,00,0.0,0.000,M,0.0,M,,*6A $GPRMC,000000.000,V,5205.028,N,01646.977,E,0.00,0.00,010070,,*16 $GPGGA,000000.000,5205.028,N,01646.977,E,0,00,0.0,0.000,M,0.0,M,,*69 $GPRMC,000000.000,V,5204.942,N,01646.878,E,0.00,0.00,010070,,*1C $GPGGA,000000.000,5204.942,N,01646.878,E,0,00,0.0,0.000,M,0.0,M,,*63 $GPRMC,000000.000,V,5204.906,N,01646.923,E,0.00,0.00,010070,,*13 $GPGGA,000000.000,5204.906,N,01646.923,E,0,00,0.0,0.000,M,0.0,M,,*6C $GPRMC,000000.000,V,5204.872,N,01647.051,E,0.00,0.00,010070,,*1C $GPGGA,000000.000,5204.872,N,01647.051,E,0,00,0.0,0.000,M,0.0,M,,*63 $GPRMC,000000.000,V,5204.754,N,01646.986,E,0.00,0.00,010070,,*15 $GPGGA,000000.000,5204.754,N,01646.986,E,0,00,0.0,0.000,M,0.0,M,,*6A $GPRMC,000000.000,V,5204.730,N,01646.998,E,0.00,0.00,010070,,*18 $GPGGA,000000.000,5204.730,N,01646.998,E,0,00,0.0,0.000,M,0.0,M,,*67 $GPRMC,000000.000,V,5204.574,N,01647.676,E,0.00,0.00,010070,,*14 $GPGGA,000000.000,5204.574,N,01647.676,E,0,00,0.0,0.000,M,0.0,M,,*6B $GPRMC,000000.000,V,5204.512,N,01647.946,E,0.00,0.00,010070,,*18 $GPGGA,000000.000,5204.512,N,01647.946,E,0,00,0.0,0.000,M,0.0,M,,*67 $GPRMC,000000.000,V,5204.247,N,01648.006,E,0.00,0.00,010070,,*1D $GPGGA,000000.000,5204.247,N,01648.006,E,0,00,0.0,0.000,M,0.0,M,,*62 $GPRMC,000000.000,V,5204.082,N,01648.050,E,0.00,0.00,010070,,*15 $GPGGA,000000.000,5204.082,N,01648.050,E,0,00,0.0,0.000,M,0.0,M,,*6A $GPRMC,000000.000,V,5204.015,N,01648.002,E,0.00,0.00,010070,,*1C $GPGGA,000000.000,5204.015,N,01648.002,E,0,00,0.0,0.000,M,0.0,M,,*63 $GPRMC,000000.000,V,5203.937,N,01647.939,E,0.00,0.00,010070,,*1C $GPGGA,000000.000,5203.937,N,01647.939,E,0,00,0.0,0.000,M,0.0,M,,*63 $GPRMC,000000.000,V,5203.827,N,01648.210,E,0.00,0.00,010070,,*13 $GPGGA,000000.000,5203.827,N,01648.210,E,0,00,0.0,0.000,M,0.0,M,,*6C $GPRMC,000000.000,V,5203.698,N,01648.540,E,0.00,0.00,010070,,*1B $GPGGA,000000.000,5203.698,N,01648.540,E,0,00,0.0,0.000,M,0.0,M,,*64 $GPRMC,000000.000,V,5203.612,N,01648.764,E,0.00,0.00,010070,,*1D $GPGGA,000000.000,5203.612,N,01648.764,E,0,00,0.0,0.000,M,0.0,M,,*62 $GPRMC,000000.000,V,5203.706,N,01648.893,E,0.00,0.00,010070,,*1E $GPGGA,000000.000,5203.706,N,01648.893,E,0,00,0.0,0.000,M,0.0,M,,*61 $GPRMC,000000.000,V,5203.670,N,01649.028,E,0.00,0.00,010070,,*17 $GPGGA,000000.000,5203.670,N,01649.028,E,0,00,0.0,0.000,M,0.0,M,,*68 $GPRMC,000000.000,V,5203.662,N,01649.098,E,0.00,0.00,010070,,*1F $GPGGA,000000.000,5203.662,N,01649.098,E,0,00,0.0,0.000,M,0.0,M,,*60 $GPRMC,000000.000,V,5203.627,N,01649.137,E,0.00,0.00,010070,,*1A $GPGGA,000000.000,5203.627,N,01649.137,E,0,00,0.0,0.000,M,0.0,M,,*65 $GPRMC,000000.000,V,5203.580,N,01649.142,E,0.00,0.00,010070,,*16 $GPGGA,000000.000,5203.580,N,01649.142,E,0,00,0.0,0.000,M,0.0,M,,*69 $GPRMC,000000.000,V,5203.571,N,01649.143,E,0.00,0.00,010070,,*19 $GPGGA,000000.000,5203.571,N,01649.143,E,0,00,0.0,0.000,M,0.0,M,,*66 $GPRMC,000000.000,V,5203.548,N,01649.213,E,0.00,0.00,010070,,*15 $GPGGA,000000.000,5203.548,N,01649.213,E,0,00,0.0,0.000,M,0.0,M,,*6A $GPRMC,000000.000,V,5203.499,N,01649.325,E,0.00,0.00,010070,,*1C $GPGGA,000000.000,5203.499,N,01649.325,E,0,00,0.0,0.000,M,0.0,M,,*63 $GPRMC,000000.000,V,5203.424,N,01649.473,E,0.00,0.00,010070,,*1E $GPGGA,000000.000,5203.424,N,01649.473,E,0,00,0.0,0.000,M,0.0,M,,*61 $GPRMC,000000.000,V,5203.392,N,01649.538,E,0.00,0.00,010070,,*1A $GPGGA,000000.000,5203.392,N,01649.538,E,0,00,0.0,0.000,M,0.0,M,,*65 $GPRMC,000000.000,V,5203.369,N,01649.585,E,0.00,0.00,010070,,*18 $GPGGA,000000.000,5203.369,N,01649.585,E,0,00,0.0,0.000,M,0.0,M,,*67 $GPRMC,000000.000,V,5203.187,N,01649.576,E,0.00,0.00,010070,,*16 $GPGGA,000000.000,5203.187,N,01649.576,E,0,00,0.0,0.000,M,0.0,M,,*69 $GPRMC,000000.000,V,5202.975,N,01649.563,E,0.00,0.00,010070,,*16 $GPGGA,000000.000,5202.975,N,01649.563,E,0,00,0.0,0.000,M,0.0,M,,*69 $GPRMC,000000.000,V,5202.701,N,01649.547,E,0.00,0.00,010070,,*1D $GPGGA,000000.000,5202.701,N,01649.547,E,0,00,0.0,0.000,M,0.0,M,,*62 $GPRMC,000000.000,V,5202.448,N,01649.528,E,0.00,0.00,010070,,*1A $GPGGA,000000.000,5202.448,N,01649.528,E,0,00,0.0,0.000,M,0.0,M,,*65 $GPRMC,000000.000,V,5202.220,N,01649.511,E,0.00,0.00,010070,,*18 $GPGGA,000000.000,5202.220,N,01649.511,E,0,00,0.0,0.000,M,0.0,M,,*67 $GPRMC,000000.000,V,5201.960,N,01649.491,E,0.00,0.00,010070,,*1D $GPGGA,000000.000,5201.960,N,01649.491,E,0,00,0.0,0.000,M,0.0,M,,*62 $GPRMC,000000.000,V,5201.678,N,01649.474,E,0.00,0.00,010070,,*10 $GPGGA,000000.000,5201.678,N,01649.474,E,0,00,0.0,0.000,M,0.0,M,,*6F $GPRMC,000000.000,V,5201.326,N,01649.447,E,0.00,0.00,010070,,*1E $GPGGA,000000.000,5201.326,N,01649.447,E,0,00,0.0,0.000,M,0.0,M,,*61 $GPRMC,000000.000,V,5201.193,N,01649.474,E,0.00,0.00,010070,,*12 $GPGGA,000000.000,5201.193,N,01649.474,E,0,00,0.0,0.000,M,0.0,M,,*6D $GPRMC,000000.000,V,5201.091,N,01649.512,E,0.00,0.00,010070,,*10 $GPGGA,000000.000,5201.091,N,01649.512,E,0,00,0.0,0.000,M,0.0,M,,*6F $GPRMC,000000.000,V,5201.024,N,01649.516,E,0.00,0.00,010070,,*1A $GPGGA,000000.000,5201.024,N,01649.516,E,0,00,0.0,0.000,M,0.0,M,,*65 $GPRMC,000000.000,V,5200.983,N,01649.518,E,0.00,0.00,010070,,*11 $GPGGA,000000.000,5200.983,N,01649.518,E,0,00,0.0,0.000,M,0.0,M,,*6E $GPRMC,000000.000,V,5200.966,N,01649.515,E,0.00,0.00,010070,,*17 $GPGGA,000000.000,5200.966,N,01649.515,E,0,00,0.0,0.000,M,0.0,M,,*68 $GPRMC,000000.000,V,5200.939,N,01649.509,E,0.00,0.00,010070,,*10 $GPGGA,000000.000,5200.939,N,01649.509,E,0,00,0.0,0.000,M,0.0,M,,*6F $GPRMC,000000.000,V,5200.915,N,01649.497,E,0.00,0.00,010070,,*18 $GPGGA,000000.000,5200.915,N,01649.497,E,0,00,0.0,0.000,M,0.0,M,,*67 $GPRMC,000000.000,V,5200.898,N,01649.487,E,0.00,0.00,010070,,*1D $GPGGA,000000.000,5200.898,N,01649.487,E,0,00,0.0,0.000,M,0.0,M,,*62 $GPRMC,000000.000,V,5200.879,N,01649.517,E,0.00,0.00,010070,,*1A $GPGGA,000000.000,5200.879,N,01649.517,E,0,00,0.0,0.000,M,0.0,M,,*65 $GPRMC,000000.000,V,5200.861,N,01649.514,E,0.00,0.00,010070,,*10 $GPGGA,000000.000,5200.861,N,01649.514,E,0,00,0.0,0.000,M,0.0,M,,*6F $GPRMC,000000.000,V,5200.826,N,01649.510,E,0.00,0.00,010070,,*17 $GPGGA,000000.000,5200.826,N,01649.510,E,0,00,0.0,0.000,M,0.0,M,,*68 $GPRMC,000000.000,V,5200.790,N,01649.512,E,0.00,0.00,010070,,*17 $GPGGA,000000.000,5200.790,N,01649.512,E,0,00,0.0,0.000,M,0.0,M,,*68 $GPRMC,000000.000,V,5200.750,N,01649.517,E,0.00,0.00,010070,,*1E $GPGGA,000000.000,5200.750,N,01649.517,E,0,00,0.0,0.000,M,0.0,M,,*61 $GPRMC,000000.000,V,5200.714,N,01649.523,E,0.00,0.00,010070,,*19 $GPGGA,000000.000,5200.714,N,01649.523,E,0,00,0.0,0.000,M,0.0,M,,*66 $GPRMC,000000.000,V,5200.669,N,01649.533,E,0.00,0.00,010070,,*13 $GPGGA,000000.000,5200.669,N,01649.533,E,0,00,0.0,0.000,M,0.0,M,,*6C $GPRMC,000000.000,V,5200.627,N,01649.538,E,0.00,0.00,010070,,*12 $GPGGA,000000.000,5200.627,N,01649.538,E,0,00,0.0,0.000,M,0.0,M,,*6D $GPRMC,000000.000,V,5200.491,N,01649.558,E,0.00,0.00,010070,,*1B $GPGGA,000000.000,5200.491,N,01649.558,E,0,00,0.0,0.000,M,0.0,M,,*64 $GPRMC,000000.000,V,5200.333,N,01649.594,E,0.00,0.00,010070,,*14 $GPGGA,000000.000,5200.333,N,01649.594,E,0,00,0.0,0.000,M,0.0,M,,*6B $GPRMC,000000.000,V,5200.031,N,01649.642,E,0.00,0.00,010070,,*1D $GPGGA,000000.000,5200.031,N,01649.642,E,0,00,0.0,0.000,M,0.0,M,,*62 $GPRMC,000000.000,V,5159.919,N,01649.626,E,0.00,0.00,010070,,*13 $GPGGA,000000.000,5159.919,N,01649.626,E,0,00,0.0,0.000,M,0.0,M,,*6C $GPRMC,000000.000,V,5159.901,N,01649.617,E,0.00,0.00,010070,,*18 $GPGGA,000000.000,5159.901,N,01649.617,E,0,00,0.0,0.000,M,0.0,M,,*67 $GPRMC,000000.000,V,5159.860,N,01649.554,E,0.00,0.00,010070,,*1A $GPGGA,000000.000,5159.860,N,01649.554,E,0,00,0.0,0.000,M,0.0,M,,*65 $GPRMC,000000.000,V,5159.840,N,01649.532,E,0.00,0.00,010070,,*18 $GPGGA,000000.000,5159.840,N,01649.532,E,0,00,0.0,0.000,M,0.0,M,,*67 $GPRMC,000000.000,V,5159.642,N,01649.531,E,0.00,0.00,010070,,*17 $GPGGA,000000.000,5159.642,N,01649.531,E,0,00,0.0,0.000,M,0.0,M,,*68 $GPRMC,000000.000,V,5159.523,N,01649.529,E,0.00,0.00,010070,,*1A $GPGGA,000000.000,5159.523,N,01649.529,E,0,00,0.0,0.000,M,0.0,M,,*65 $GPRMC,000000.000,V,5159.268,N,01649.501,E,0.00,0.00,010070,,*18 $GPGGA,000000.000,5159.268,N,01649.501,E,0,00,0.0,0.000,M,0.0,M,,*67 $GPRMC,000000.000,V,5159.148,N,01649.487,E,0.00,0.00,010070,,*16 $GPGGA,000000.000,5159.148,N,01649.487,E,0,00,0.0,0.000,M,0.0,M,,*69 $GPRMC,000000.000,V,5159.116,N,01649.476,E,0.00,0.00,010070,,*13 $GPGGA,000000.000,5159.116,N,01649.476,E,0,00,0.0,0.000,M,0.0,M,,*6C $GPRMC,000000.000,V,5159.090,N,01649.476,E,0.00,0.00,010070,,*1C $GPGGA,000000.000,5159.090,N,01649.476,E,0,00,0.0,0.000,M,0.0,M,,*63 $GPRMC,000000.000,V,5159.025,N,01649.467,E,0.00,0.00,010070,,*12 $GPGGA,000000.000,5159.025,N,01649.467,E,0,00,0.0,0.000,M,0.0,M,,*6D $GPRMC,000000.000,V,5158.983,N,01649.469,E,0.00,0.00,010070,,*18 $GPGGA,000000.000,5158.983,N,01649.469,E,0,00,0.0,0.000,M,0.0,M,,*67 $GPRMC,000000.000,V,5158.953,N,01649.471,E,0.00,0.00,010070,,*1C $GPGGA,000000.000,5158.953,N,01649.471,E,0,00,0.0,0.000,M,0.0,M,,*63 $GPRMC,000000.000,V,5158.900,N,01649.486,E,0.00,0.00,010070,,*12 $GPGGA,000000.000,5158.900,N,01649.486,E,0,00,0.0,0.000,M,0.0,M,,*6D $GPRMC,000000.000,V,5158.870,N,01649.500,E,0.00,0.00,010070,,*1B $GPGGA,000000.000,5158.870,N,01649.500,E,0,00,0.0,0.000,M,0.0,M,,*64 $GPRMC,000000.000,V,5158.832,N,01649.489,E,0.00,0.00,010070,,*1D $GPGGA,000000.000,5158.832,N,01649.489,E,0,00,0.0,0.000,M,0.0,M,,*62 $GPRMC,000000.000,V,5158.797,N,01649.460,E,0.00,0.00,010070,,*1A $GPGGA,000000.000,5158.797,N,01649.460,E,0,00,0.0,0.000,M,0.0,M,,*65 $GPRMC,000000.000,V,5158.768,N,01649.444,E,0.00,0.00,010070,,*1C $GPGGA,000000.000,5158.768,N,01649.444,E,0,00,0.0,0.000,M,0.0,M,,*63 $GPRMC,000000.000,V,5158.740,N,01649.432,E,0.00,0.00,010070,,*17 $GPGGA,000000.000,5158.740,N,01649.432,E,0,00,0.0,0.000,M,0.0,M,,*68 $GPRMC,000000.000,V,5158.705,N,01649.427,E,0.00,0.00,010070,,*12 $GPGGA,000000.000,5158.705,N,01649.427,E,0,00,0.0,0.000,M,0.0,M,,*6D $GPRMC,000000.000,V,5158.559,N,01649.402,E,0.00,0.00,010070,,*1E $GPGGA,000000.000,5158.559,N,01649.402,E,0,00,0.0,0.000,M,0.0,M,,*61 $GPRMC,000000.000,V,5158.390,N,01649.370,E,0.00,0.00,010070,,*1F $GPGGA,000000.000,5158.390,N,01649.370,E,0,00,0.0,0.000,M,0.0,M,,*60 $GPRMC,000000.000,V,5158.372,N,01649.367,E,0.00,0.00,010070,,*15 $GPGGA,000000.000,5158.372,N,01649.367,E,0,00,0.0,0.000,M,0.0,M,,*6A $GPRMC,000000.000,V,5158.337,N,01649.361,E,0.00,0.00,010070,,*12 $GPGGA,000000.000,5158.337,N,01649.361,E,0,00,0.0,0.000,M,0.0,M,,*6D $GPRMC,000000.000,V,5158.320,N,01649.362,E,0.00,0.00,010070,,*17 $GPGGA,000000.000,5158.320,N,01649.362,E,0,00,0.0,0.000,M,0.0,M,,*68 $GPRMC,000000.000,V,5158.287,N,01649.369,E,0.00,0.00,010070,,*10 $GPGGA,000000.000,5158.287,N,01649.369,E,0,00,0.0,0.000,M,0.0,M,,*6F $GPRMC,000000.000,V,5158.235,N,01649.380,E,0.00,0.00,010070,,*1E $GPGGA,000000.000,5158.235,N,01649.380,E,0,00,0.0,0.000,M,0.0,M,,*61 $GPRMC,000000.000,V,5158.211,N,01649.389,E,0.00,0.00,010070,,*11 $GPGGA,000000.000,5158.211,N,01649.389,E,0,00,0.0,0.000,M,0.0,M,,*6E $GPRMC,000000.000,V,5158.202,N,01649.394,E,0.00,0.00,010070,,*1F $GPGGA,000000.000,5158.202,N,01649.394,E,0,00,0.0,0.000,M,0.0,M,,*60 $GPRMC,000000.000,V,5158.192,N,01649.410,E,0.00,0.00,010070,,*1E $GPGGA,000000.000,5158.192,N,01649.410,E,0,00,0.0,0.000,M,0.0,M,,*61 $GPRMC,000000.000,V,5158.183,N,01649.427,E,0.00,0.00,010070,,*1A $GPGGA,000000.000,5158.183,N,01649.427,E,0,00,0.0,0.000,M,0.0,M,,*65 $GPRMC,000000.000,V,5157.950,N,01649.247,E,0.00,0.00,010070,,*13 $GPGGA,000000.000,5157.950,N,01649.247,E,0,00,0.0,0.000,M,0.0,M,,*6C $GPRMC,000000.000,V,5157.929,N,01649.233,E,0.00,0.00,010070,,*1E $GPGGA,000000.000,5157.929,N,01649.233,E,0,00,0.0,0.000,M,0.0,M,,*61 $GPRMC,000000.000,V,5157.898,N,01649.217,E,0.00,0.00,010070,,*13 $GPGGA,000000.000,5157.898,N,01649.217,E,0,00,0.0,0.000,M,0.0,M,,*6C $GPRMC,000000.000,V,5157.862,N,01649.201,E,0.00,0.00,010070,,*11 $GPGGA,000000.000,5157.862,N,01649.201,E,0,00,0.0,0.000,M,0.0,M,,*6E $GPRMC,000000.000,V,5157.833,N,01649.194,E,0.00,0.00,010070,,*1A $GPGGA,000000.000,5157.833,N,01649.194,E,0,00,0.0,0.000,M,0.0,M,,*65 $GPRMC,000000.000,V,5157.808,N,01649.194,E,0.00,0.00,010070,,*12 $GPGGA,000000.000,5157.808,N,01649.194,E,0,00,0.0,0.000,M,0.0,M,,*6D $GPRMC,000000.000,V,5157.789,N,01649.102,E,0.00,0.00,010070,,*1B $GPGGA,000000.000,5157.789,N,01649.102,E,0,00,0.0,0.000,M,0.0,M,,*64 $GPRMC,000000.000,V,5157.770,N,01649.063,E,0.00,0.00,010070,,*1B $GPGGA,000000.000,5157.770,N,01649.063,E,0,00,0.0,0.000,M,0.0,M,,*64 $GPRMC,000000.000,V,5157.781,N,01649.026,E,0.00,0.00,010070,,*14 $GPGGA,000000.000,5157.781,N,01649.026,E,0,00,0.0,0.000,M,0.0,M,,*6B $GPRMC,000000.000,V,5157.782,N,01649.012,E,0.00,0.00,010070,,*10 $GPGGA,000000.000,5157.782,N,01649.012,E,0,00,0.0,0.000,M,0.0,M,,*6F $GPRMC,000000.000,V,5157.779,N,01649.003,E,0.00,0.00,010070,,*14 $GPGGA,000000.000,5157.779,N,01649.003,E,0,00,0.0,0.000,M,0.0,M,,*6B $GPRMC,000000.000,V,5157.752,N,01649.034,E,0.00,0.00,010070,,*19 $GPGGA,000000.000,5157.752,N,01649.034,E,0,00,0.0,0.000,M,0.0,M,,*66 $GPRMC,000000.000,V,5157.730,N,01649.065,E,0.00,0.00,010070,,*19 $GPGGA,000000.000,5157.730,N,01649.065,E,0,00,0.0,0.000,M,0.0,M,,*66 $GPRMC,000000.000,V,5157.706,N,01649.101,E,0.00,0.00,010070,,*1F $GPGGA,000000.000,5157.706,N,01649.101,E,0,00,0.0,0.000,M,0.0,M,,*60 $GPRMC,000000.000,V,5157.662,N,01649.167,E,0.00,0.00,010070,,*1C $GPGGA,000000.000,5157.662,N,01649.167,E,0,00,0.0,0.000,M,0.0,M,,*63 $GPRMC,000000.000,V,5157.638,N,01649.215,E,0.00,0.00,010070,,*15 $GPGGA,000000.000,5157.638,N,01649.215,E,0,00,0.0,0.000,M,0.0,M,,*6A $GPRMC,000000.000,V,5157.614,N,01649.264,E,0.00,0.00,010070,,*1D $GPGGA,000000.000,5157.614,N,01649.264,E,0,00,0.0,0.000,M,0.0,M,,*62 $GPRMC,000000.000,V,5157.534,N,01649.361,E,0.00,0.00,010070,,*18 $GPGGA,000000.000,5157.534,N,01649.361,E,0,00,0.0,0.000,M,0.0,M,,*67 $GPRMC,000000.000,V,5157.558,N,01649.395,E,0.00,0.00,010070,,*19 $GPGGA,000000.000,5157.558,N,01649.395,E,0,00,0.0,0.000,M,0.0,M,,*66 $GPRMC,000000.000,V,5157.626,N,01649.440,E,0.00,0.00,010070,,*1C $GPGGA,000000.000,5157.626,N,01649.440,E,0,00,0.0,0.000,M,0.0,M,,*63 $GPRMC,000000.000,V,5157.647,N,01649.352,E,0.00,0.00,010070,,*1F $GPGGA,000000.000,5157.647,N,01649.352,E,0,00,0.0,0.000,M,0.0,M,,*60 $GPRMC,000000.000,V,5157.664,N,01649.306,E,0.00,0.00,010070,,*1F $GPGGA,000000.000,5157.664,N,01649.306,E,0,00,0.0,0.000,M,0.0,M,,*60 $GPRMC,000000.000,V,5157.680,N,01649.274,E,0.00,0.00,010070,,*11 $GPGGA,000000.000,5157.680,N,01649.274,E,0,00,0.0,0.000,M,0.0,M,,*6E $GPRMC,000000.000,V,5157.693,N,01649.256,E,0.00,0.00,010070,,*13 $GPGGA,000000.000,5157.693,N,01649.256,E,0,00,0.0,0.000,M,0.0,M,,*6C $GPRMC,000000.000,V,5157.702,N,01649.257,E,0.00,0.00,010070,,*1B $GPGGA,000000.000,5157.702,N,01649.257,E,0,00,0.0,0.000,M,0.0,M,,*64 $GPRMC,000000.000,V,5157.707,N,01649.252,E,0.00,0.00,010070,,*1B $GPGGA,000000.000,5157.707,N,01649.252,E,0,00,0.0,0.000,M,0.0,M,,*64 $GPRMC,000000.000,V,5157.708,N,01649.240,E,0.00,0.00,010070,,*17 $GPGGA,000000.000,5157.708,N,01649.240,E,0,00,0.0,0.000,M,0.0,M,,*68 $GPRMC,000000.000,V,5157.731,N,01649.227,E,0.00,0.00,010070,,*1C $GPGGA,000000.000,5157.731,N,01649.227,E,0,00,0.0,0.000,M,0.0,M,,*63 $GPRMC,000000.000,V,5157.754,N,01649.212,E,0.00,0.00,010070,,*19 $GPGGA,000000.000,5157.754,N,01649.212,E,0,00,0.0,0.000,M,0.0,M,,*66 $GPRMC,000000.000,V,5157.777,N,01649.194,E,0.00,0.00,010070,,*15 $GPGGA,000000.000,5157.777,N,01649.194,E,0,00,0.0,0.000,M,0.0,M,,*6A $GPRMC,000000.000,V,5157.755,N,01649.149,E,0.00,0.00,010070,,*15 $GPGGA,000000.000,5157.755,N,01649.149,E,0,00,0.0,0.000,M,0.0,M,,*6A $GPRMC,000000.000,V,5157.729,N,01649.111,E,0.00,0.00,010070,,*13 $GPGGA,000000.000,5157.729,N,01649.111,E,0,00,0.0,0.000,M,0.0,M,,*6C $GPRMC,000000.000,V,5157.706,N,01649.103,E,0.00,0.00,010070,,*1D $GPGGA,000000.000,5157.706,N,01649.103,E,0,00,0.0,0.000,M,0.0,M,,*62 $GPRMC,000000.000,V,5157.697,N,01649.092,E,0.00,0.00,010070,,*1D $GPGGA,000000.000,5157.697,N,01649.092,E,0,00,0.0,0.000,M,0.0,M,,*62 $GPRMC,000000.000,V,5157.652,N,01649.005,E,0.00,0.00,010070,,*1A $GPGGA,000000.000,5157.652,N,01649.005,E,0,00,0.0,0.000,M,0.0,M,,*65 $GPRMC,000000.000,V,5157.454,N,01648.643,E,0.00,0.00,010070,,*1B $GPGGA,000000.000,5157.454,N,01648.643,E,0,00,0.0,0.000,M,0.0,M,,*64 $GPRMC,000000.000,V,5157.443,N,01648.611,E,0.00,0.00,010070,,*1A $GPGGA,000000.000,5157.443,N,01648.611,E,0,00,0.0,0.000,M,0.0,M,,*65 $GPRMC,000000.000,V,5157.456,N,01648.594,E,0.00,0.00,010070,,*10 $GPGGA,000000.000,5157.456,N,01648.594,E,0,00,0.0,0.000,M,0.0,M,,*6F $GPRMC,000000.000,V,5157.474,N,01648.572,E,0.00,0.00,010070,,*18 $GPGGA,000000.000,5157.474,N,01648.572,E,0,00,0.0,0.000,M,0.0,M,,*67 $GPRMC,000000.000,V,5157.504,N,01648.537,E,0.00,0.00,010070,,*1F $GPGGA,000000.000,5157.504,N,01648.537,E,0,00,0.0,0.000,M,0.0,M,,*60 $GPRMC,000000.000,V,5157.532,N,01648.502,E,0.00,0.00,010070,,*1C $GPGGA,000000.000,5157.532,N,01648.502,E,0,00,0.0,0.000,M,0.0,M,,*63 $GPRMC,000000.000,V,5157.563,N,01648.463,E,0.00,0.00,010070,,*1E $GPGGA,000000.000,5157.563,N,01648.463,E,0,00,0.0,0.000,M,0.0,M,,*61 $GPRMC,000000.000,V,5157.603,N,01648.418,E,0.00,0.00,010070,,*17 $GPGGA,000000.000,5157.603,N,01648.418,E,0,00,0.0,0.000,M,0.0,M,,*68 $GPRMC,000000.000,V,5157.620,N,01648.390,E,0.00,0.00,010070,,*11 $GPGGA,000000.000,5157.620,N,01648.390,E,0,00,0.0,0.000,M,0.0,M,,*6E $GPRMC,000000.000,V,5157.644,N,01648.346,E,0.00,0.00,010070,,*18 $GPGGA,000000.000,5157.644,N,01648.346,E,0,00,0.0,0.000,M,0.0,M,,*67 $GPRMC,000000.000,V,5157.672,N,01648.290,E,0.00,0.00,010070,,*17 $GPGGA,000000.000,5157.672,N,01648.290,E,0,00,0.0,0.000,M,0.0,M,,*68 $GPRMC,000000.000,V,5157.690,N,01648.237,E,0.00,0.00,010070,,*16 $GPGGA,000000.000,5157.690,N,01648.237,E,0,00,0.0,0.000,M,0.0,M,,*69 $GPRMC,000000.000,V,5157.707,N,01648.166,E,0.00,0.00,010070,,*1E $GPGGA,000000.000,5157.707,N,01648.166,E,0,00,0.0,0.000,M,0.0,M,,*61 $GPRMC,000000.000,V,5157.723,N,01648.114,E,0.00,0.00,010070,,*1D $GPGGA,000000.000,5157.723,N,01648.114,E,0,00,0.0,0.000,M,0.0,M,,*62 $GPRMC,000000.000,V,5157.743,N,01648.067,E,0.00,0.00,010070,,*1E $GPGGA,000000.000,5157.743,N,01648.067,E,0,00,0.0,0.000,M,0.0,M,,*61 $GPRMC,000000.000,V,5157.764,N,01648.031,E,0.00,0.00,010070,,*18 $GPGGA,000000.000,5157.764,N,01648.031,E,0,00,0.0,0.000,M,0.0,M,,*67 $GPRMC,000000.000,V,5157.787,N,01647.999,E,0.00,0.00,010070,,*11 $GPGGA,000000.000,5157.787,N,01647.999,E,0,00,0.0,0.000,M,0.0,M,,*6E $GPRMC,000000.000,V,5157.822,N,01647.960,E,0.00,0.00,010070,,*17 $GPGGA,000000.000,5157.822,N,01647.960,E,0,00,0.0,0.000,M,0.0,M,,*68 $GPRMC,000000.000,V,5157.854,N,01647.915,E,0.00,0.00,010070,,*14 $GPGGA,000000.000,5157.854,N,01647.915,E,0,00,0.0,0.000,M,0.0,M,,*6B $GPRMC,000000.000,V,5157.879,N,01647.868,E,0.00,0.00,010070,,*10 $GPGGA,000000.000,5157.879,N,01647.868,E,0,00,0.0,0.000,M,0.0,M,,*6F $GPRMC,000000.000,V,5157.892,N,01647.834,E,0.00,0.00,010070,,*1C $GPGGA,000000.000,5157.892,N,01647.834,E,0,00,0.0,0.000,M,0.0,M,,*63 $GPRMC,000000.000,V,5157.904,N,01647.792,E,0.00,0.00,010070,,*11 $GPGGA,000000.000,5157.904,N,01647.792,E,0,00,0.0,0.000,M,0.0,M,,*6E $GPRMC,000000.000,V,5157.906,N,01647.763,E,0.00,0.00,010070,,*1D $GPGGA,000000.000,5157.906,N,01647.763,E,0,00,0.0,0.000,M,0.0,M,,*62 $GPRMC,000000.000,V,5157.902,N,01647.512,E,0.00,0.00,010070,,*1D $GPGGA,000000.000,5157.902,N,01647.512,E,0,00,0.0,0.000,M,0.0,M,,*62 $GPRMC,000000.000,V,5157.892,N,01647.331,E,0.00,0.00,010070,,*12 $GPGGA,000000.000,5157.892,N,01647.331,E,0,00,0.0,0.000,M,0.0,M,,*6D $GPRMC,000000.000,V,5157.884,N,01647.315,E,0.00,0.00,010070,,*13 $GPGGA,000000.000,5157.884,N,01647.315,E,0,00,0.0,0.000,M,0.0,M,,*6C $GPRMC,000000.000,V,5157.883,N,01647.080,E,0.00,0.00,010070,,*1B $GPGGA,000000.000,5157.883,N,01647.080,E,0,00,0.0,0.000,M,0.0,M,,*64 $GPRMC,000000.000,V,5157.884,N,01647.020,E,0.00,0.00,010070,,*16 $GPGGA,000000.000,5157.884,N,01647.020,E,0,00,0.0,0.000,M,0.0,M,,*69 $GPRMC,000000.000,V,5157.877,N,01647.010,E,0.00,0.00,010070,,*19 $GPGGA,000000.000,5157.877,N,01647.010,E,0,00,0.0,0.000,M,0.0,M,,*66 $GPRMC,000000.000,V,5157.839,N,01647.008,E,0.00,0.00,010070,,*1A $GPGGA,000000.000,5157.839,N,01647.008,E,0,00,0.0,0.000,M,0.0,M,,*65 $GPRMC,000000.000,V,5157.716,N,01646.983,E,0.00,0.00,010070,,*13 $GPGGA,000000.000,5157.716,N,01646.983,E,0,00,0.0,0.000,M,0.0,M,,*6C $GPRMC,000000.000,V,5157.727,N,01646.952,E,0.00,0.00,010070,,*1D $GPGGA,000000.000,5157.727,N,01646.952,E,0,00,0.0,0.000,M,0.0,M,,*62 $GPRMC,000000.000,V,5157.731,N,01646.909,E,0.00,0.00,010070,,*14 $GPGGA,000000.000,5157.731,N,01646.909,E,0,00,0.0,0.000,M,0.0,M,,*6B $GPRMC,000000.000,V,5157.743,N,01646.740,E,0.00,0.00,010070,,*12 $GPGGA,000000.000,5157.743,N,01646.740,E,0,00,0.0,0.000,M,0.0,M,,*6D $GPRMC,000000.000,V,5157.744,N,01646.574,E,0.00,0.00,010070,,*10 $GPGGA,000000.000,5157.744,N,01646.574,E,0,00,0.0,0.000,M,0.0,M,,*6F $GPRMC,000000.000,V,5157.752,N,01646.474,E,0.00,0.00,010070,,*16 $GPGGA,000000.000,5157.752,N,01646.474,E,0,00,0.0,0.000,M,0.0,M,,*69 $GPRMC,000000.000,V,5157.761,N,01646.404,E,0.00,0.00,010070,,*11 $GPGGA,000000.000,5157.761,N,01646.404,E,0,00,0.0,0.000,M,0.0,M,,*6E $GPRMC,000000.000,V,5157.767,N,01646.356,E,0.00,0.00,010070,,*17 $GPGGA,000000.000,5157.767,N,01646.356,E,0,00,0.0,0.000,M,0.0,M,,*68 $GPRMC,000000.000,V,5157.771,N,01646.284,E,0.00,0.00,010070,,*1E $GPGGA,000000.000,5157.771,N,01646.284,E,0,00,0.0,0.000,M,0.0,M,,*61 $GPRMC,000000.000,V,5157.787,N,01646.146,E,0.00,0.00,010070,,*1A $GPGGA,000000.000,5157.787,N,01646.146,E,0,00,0.0,0.000,M,0.0,M,,*65 $GPRMC,000000.000,V,5157.820,N,01646.040,E,0.00,0.00,010070,,*1F $GPGGA,000000.000,5157.820,N,01646.040,E,0,00,0.0,0.000,M,0.0,M,,*60 $GPRMC,000000.000,V,5157.870,N,01645.886,E,0.00,0.00,010070,,*1B $GPGGA,000000.000,5157.870,N,01645.886,E,0,00,0.0,0.000,M,0.0,M,,*64 $GPRMC,000000.000,V,5157.919,N,01645.713,E,0.00,0.00,010070,,*16 $GPGGA,000000.000,5157.919,N,01645.713,E,0,00,0.0,0.000,M,0.0,M,,*69 $GPRMC,000000.000,V,5157.981,N,01645.509,E,0.00,0.00,010070,,*1E $GPGGA,000000.000,5157.981,N,01645.509,E,0,00,0.0,0.000,M,0.0,M,,*61 $GPRMC,000000.000,V,5158.042,N,01645.297,E,0.00,0.00,010070,,*17 $GPGGA,000000.000,5158.042,N,01645.297,E,0,00,0.0,0.000,M,0.0,M,,*68 $GPRMC,000000.000,V,5158.104,N,01645.081,E,0.00,0.00,010070,,*11 $GPGGA,000000.000,5158.104,N,01645.081,E,0,00,0.0,0.000,M,0.0,M,,*6E $GPRMC,000000.000,V,5158.167,N,01644.877,E,0.00,0.00,010070,,*14 $GPGGA,000000.000,5158.167,N,01644.877,E,0,00,0.0,0.000,M,0.0,M,,*6B $GPRMC,000000.000,V,5158.178,N,01644.822,E,0.00,0.00,010070,,*1A $GPGGA,000000.000,5158.178,N,01644.822,E,0,00,0.0,0.000,M,0.0,M,,*65 $GPRMC,000000.000,V,5158.188,N,01644.781,E,0.00,0.00,010070,,*13 $GPGGA,000000.000,5158.188,N,01644.781,E,0,00,0.0,0.000,M,0.0,M,,*6C $GPRMC,000000.000,V,5158.192,N,01644.745,E,0.00,0.00,010070,,*10 $GPGGA,000000.000,5158.192,N,01644.745,E,0,00,0.0,0.000,M,0.0,M,,*6F $GPRMC,000000.000,V,5158.191,N,01644.715,E,0.00,0.00,010070,,*16 $GPGGA,000000.000,5158.191,N,01644.715,E,0,00,0.0,0.000,M,0.0,M,,*69 $GPRMC,000000.000,V,5158.170,N,01644.645,E,0.00,0.00,010070,,*1D $GPGGA,000000.000,5158.170,N,01644.645,E,0,00,0.0,0.000,M,0.0,M,,*62 $GPRMC,000000.000,V,5158.094,N,01644.430,E,0.00,0.00,010070,,*16 $GPGGA,000000.000,5158.094,N,01644.430,E,0,00,0.0,0.000,M,0.0,M,,*69 $GPRMC,000000.000,V,5158.017,N,01644.208,E,0.00,0.00,010070,,*10 $GPGGA,000000.000,5158.017,N,01644.208,E,0,00,0.0,0.000,M,0.0,M,,*6F $GPRMC,000000.000,V,5157.930,N,01643.935,E,0.00,0.00,010070,,*11 $GPGGA,000000.000,5157.930,N,01643.935,E,0,00,0.0,0.000,M,0.0,M,,*6E $GPRMC,000000.000,V,5157.870,N,01643.755,E,0.00,0.00,010070,,*1C $GPGGA,000000.000,5157.870,N,01643.755,E,0,00,0.0,0.000,M,0.0,M,,*63 $GPRMC,000000.000,V,5157.812,N,01643.575,E,0.00,0.00,010070,,*18 $GPGGA,000000.000,5157.812,N,01643.575,E,0,00,0.0,0.000,M,0.0,M,,*67 $GPRMC,000000.000,V,5157.783,N,01643.470,E,0.00,0.00,010070,,*1B $GPGGA,000000.000,5157.783,N,01643.470,E,0,00,0.0,0.000,M,0.0,M,,*64 $GPRMC,000000.000,V,5157.768,N,01643.380,E,0.00,0.00,010070,,*16 $GPGGA,000000.000,5157.768,N,01643.380,E,0,00,0.0,0.000,M,0.0,M,,*69 $GPRMC,000000.000,V,5157.756,N,01643.302,E,0.00,0.00,010070,,*11 $GPGGA,000000.000,5157.756,N,01643.302,E,0,00,0.0,0.000,M,0.0,M,,*6E $GPRMC,000000.000,V,5157.754,N,01643.244,E,0.00,0.00,010070,,*10 $GPGGA,000000.000,5157.754,N,01643.244,E,0,00,0.0,0.000,M,0.0,M,,*6F $GPRMC,000000.000,V,5157.767,N,01643.189,E,0.00,0.00,010070,,*12 $GPGGA,000000.000,5157.767,N,01643.189,E,0,00,0.0,0.000,M,0.0,M,,*6D $GPRMC,000000.000,V,5157.787,N,01643.108,E,0.00,0.00,010070,,*15 $GPGGA,000000.000,5157.787,N,01643.108,E,0,00,0.0,0.000,M,0.0,M,,*6A $GPRMC,000000.000,V,5157.862,N,01642.903,E,0.00,0.00,010070,,*13 $GPGGA,000000.000,5157.862,N,01642.903,E,0,00,0.0,0.000,M,0.0,M,,*6C $GPRMC,000000.000,V,5157.964,N,01642.841,E,0.00,0.00,010070,,*13 $GPGGA,000000.000,5157.964,N,01642.841,E,0,00,0.0,0.000,M,0.0,M,,*6C $GPRMC,000000.000,V,5158.077,N,01642.761,E,0.00,0.00,010070,,*1A $GPGGA,000000.000,5158.077,N,01642.761,E,0,00,0.0,0.000,M,0.0,M,,*65 $GPRMC,000000.000,V,5158.321,N,01642.596,E,0.00,0.00,010070,,*10 $GPGGA,000000.000,5158.321,N,01642.596,E,0,00,0.0,0.000,M,0.0,M,,*6F $GPRMC,000000.000,V,5158.519,N,01642.458,E,0.00,0.00,010070,,*1E $GPGGA,000000.000,5158.519,N,01642.458,E,0,00,0.0,0.000,M,0.0,M,,*61 $GPRMC,000000.000,V,5158.652,N,01642.370,E,0.00,0.00,010070,,*1F $GPGGA,000000.000,5158.652,N,01642.370,E,0,00,0.0,0.000,M,0.0,M,,*60 $GPRMC,000000.000,V,5158.717,N,01642.326,E,0.00,0.00,010070,,*1C $GPGGA,000000.000,5158.717,N,01642.326,E,0,00,0.0,0.000,M,0.0,M,,*63 $GPRMC,000000.000,V,5158.771,N,01642.296,E,0.00,0.00,010070,,*16 $GPGGA,000000.000,5158.771,N,01642.296,E,0,00,0.0,0.000,M,0.0,M,,*69 $GPRMC,000000.000,V,5158.751,N,01642.199,E,0.00,0.00,010070,,*18 $GPGGA,000000.000,5158.751,N,01642.199,E,0,00,0.0,0.000,M,0.0,M,,*67 $GPRMC,000000.000,V,5158.735,N,01642.095,E,0.00,0.00,010070,,*17 $GPGGA,000000.000,5158.735,N,01642.095,E,0,00,0.0,0.000,M,0.0,M,,*68 $GPRMC,000000.000,V,5158.727,N,01642.019,E,0.00,0.00,010070,,*10 $GPGGA,000000.000,5158.727,N,01642.019,E,0,00,0.0,0.000,M,0.0,M,,*6F $GPRMC,000000.000,V,5158.729,N,01641.905,E,0.00,0.00,010070,,*19 $GPGGA,000000.000,5158.729,N,01641.905,E,0,00,0.0,0.000,M,0.0,M,,*66 $GPRMC,000000.000,V,5158.738,N,01641.786,E,0.00,0.00,010070,,*1C $GPGGA,000000.000,5158.738,N,01641.786,E,0,00,0.0,0.000,M,0.0,M,,*63 $GPRMC,000000.000,V,5158.744,N,01641.657,E,0.00,0.00,010070,,*1A $GPGGA,000000.000,5158.744,N,01641.657,E,0,00,0.0,0.000,M,0.0,M,,*65 $GPRMC,000000.000,V,5158.750,N,01641.566,E,0.00,0.00,010070,,*1E $GPGGA,000000.000,5158.750,N,01641.566,E,0,00,0.0,0.000,M,0.0,M,,*61 $GPRMC,000000.000,V,5158.759,N,01641.418,E,0.00,0.00,010070,,*1F $GPGGA,000000.000,5158.759,N,01641.418,E,0,00,0.0,0.000,M,0.0,M,,*60 $GPRMC,000000.000,V,5158.772,N,01641.293,E,0.00,0.00,010070,,*13 $GPGGA,000000.000,5158.772,N,01641.293,E,0,00,0.0,0.000,M,0.0,M,,*6C $GPRMC,000000.000,V,5158.788,N,01641.208,E,0.00,0.00,010070,,*14 $GPGGA,000000.000,5158.788,N,01641.208,E,0,00,0.0,0.000,M,0.0,M,,*6B $GPRMC,000000.000,V,5158.795,N,01641.154,E,0.00,0.00,010070,,*12 $GPGGA,000000.000,5158.795,N,01641.154,E,0,00,0.0,0.000,M,0.0,M,,*6D $GPRMC,000000.000,V,5158.803,N,01641.110,E,0.00,0.00,010070,,*12 $GPGGA,000000.000,5158.803,N,01641.110,E,0,00,0.0,0.000,M,0.0,M,,*6D $GPRMC,000000.000,V,5158.816,N,01641.077,E,0.00,0.00,010070,,*16 $GPGGA,000000.000,5158.816,N,01641.077,E,0,00,0.0,0.000,M,0.0,M,,*69 $GPRMC,000000.000,V,5158.826,N,01641.055,E,0.00,0.00,010070,,*15 $GPGGA,000000.000,5158.826,N,01641.055,E,0,00,0.0,0.000,M,0.0,M,,*6A $GPRMC,000000.000,V,5158.878,N,01640.812,E,0.00,0.00,010070,,*14 $GPGGA,000000.000,5158.878,N,01640.812,E,0,00,0.0,0.000,M,0.0,M,,*6B $GPRMC,000000.000,V,5158.885,N,01640.776,E,0.00,0.00,010070,,*1B $GPGGA,000000.000,5158.885,N,01640.776,E,0,00,0.0,0.000,M,0.0,M,,*64 $GPRMC,000000.000,V,5158.881,N,01640.733,E,0.00,0.00,010070,,*1E $GPGGA,000000.000,5158.881,N,01640.733,E,0,00,0.0,0.000,M,0.0,M,,*61 $GPRMC,000000.000,V,5158.843,N,01640.489,E,0.00,0.00,010070,,*12 $GPGGA,000000.000,5158.843,N,01640.489,E,0,00,0.0,0.000,M,0.0,M,,*6D $GPRMC,000000.000,V,5158.824,N,01640.175,E,0.00,0.00,010070,,*15 $GPGGA,000000.000,5158.824,N,01640.175,E,0,00,0.0,0.000,M,0.0,M,,*6A $GPRMC,000000.000,V,5158.815,N,01639.777,E,0.00,0.00,010070,,*1D $GPGGA,000000.000,5158.815,N,01639.777,E,0,00,0.0,0.000,M,0.0,M,,*62 $GPRMC,000000.000,V,5158.806,N,01639.205,E,0.00,0.00,010070,,*1F $GPGGA,000000.000,5158.806,N,01639.205,E,0,00,0.0,0.000,M,0.0,M,,*60 $GPRMC,000000.000,V,5158.806,N,01639.176,E,0.00,0.00,010070,,*18 $GPGGA,000000.000,5158.806,N,01639.176,E,0,00,0.0,0.000,M,0.0,M,,*67 $GPRMC,000000.000,V,5158.810,N,01639.153,E,0.00,0.00,010070,,*18 $GPGGA,000000.000,5158.810,N,01639.153,E,0,00,0.0,0.000,M,0.0,M,,*67 $GPRMC,000000.000,V,5158.820,N,01639.126,E,0.00,0.00,010070,,*19 $GPGGA,000000.000,5158.820,N,01639.126,E,0,00,0.0,0.000,M,0.0,M,,*66 $GPRMC,000000.000,V,5159.008,N,01638.754,E,0.00,0.00,010070,,*18 $GPGGA,000000.000,5159.008,N,01638.754,E,0,00,0.0,0.000,M,0.0,M,,*67 $GPRMC,000000.000,V,5159.100,N,01638.600,E,0.00,0.00,010070,,*11 $GPGGA,000000.000,5159.100,N,01638.600,E,0,00,0.0,0.000,M,0.0,M,,*6E $GPRMC,000000.000,V,5159.207,N,01638.415,E,0.00,0.00,010070,,*13 $GPGGA,000000.000,5159.207,N,01638.415,E,0,00,0.0,0.000,M,0.0,M,,*6C $GPRMC,000000.000,V,5159.316,N,01638.231,E,0.00,0.00,010070,,*12 $GPGGA,000000.000,5159.316,N,01638.231,E,0,00,0.0,0.000,M,0.0,M,,*6D $GPRMC,000000.000,V,5159.341,N,01638.190,E,0.00,0.00,010070,,*18 $GPGGA,000000.000,5159.341,N,01638.190,E,0,00,0.0,0.000,M,0.0,M,,*67 $GPRMC,000000.000,V,5159.369,N,01638.136,E,0.00,0.00,010070,,*1E $GPGGA,000000.000,5159.369,N,01638.136,E,0,00,0.0,0.000,M,0.0,M,,*61 $GPRMC,000000.000,V,5159.396,N,01638.097,E,0.00,0.00,010070,,*14 $GPGGA,000000.000,5159.396,N,01638.097,E,0,00,0.0,0.000,M,0.0,M,,*6B $GPRMC,000000.000,V,5159.419,N,01638.056,E,0.00,0.00,010070,,*19 $GPGGA,000000.000,5159.419,N,01638.056,E,0,00,0.0,0.000,M,0.0,M,,*66 $GPRMC,000000.000,V,5159.427,N,01638.045,E,0.00,0.00,010070,,*16 $GPGGA,000000.000,5159.427,N,01638.045,E,0,00,0.0,0.000,M,0.0,M,,*69 $GPRMC,000000.000,V,5159.438,N,01638.034,E,0.00,0.00,010070,,*1E $GPGGA,000000.000,5159.438,N,01638.034,E,0,00,0.0,0.000,M,0.0,M,,*61 $GPRMC,000000.000,V,5159.446,N,01638.030,E,0.00,0.00,010070,,*13 $GPGGA,000000.000,5159.446,N,01638.030,E,0,00,0.0,0.000,M,0.0,M,,*6C $GPRMC,000000.000,V,5159.460,N,01638.024,E,0.00,0.00,010070,,*12 $GPGGA,000000.000,5159.460,N,01638.024,E,0,00,0.0,0.000,M,0.0,M,,*6D $GPRMC,000000.000,V,5159.474,N,01638.027,E,0.00,0.00,010070,,*14 $GPGGA,000000.000,5159.474,N,01638.027,E,0,00,0.0,0.000,M,0.0,M,,*6B $GPRMC,000000.000,V,5159.487,N,01638.029,E,0.00,0.00,010070,,*16 $GPGGA,000000.000,5159.487,N,01638.029,E,0,00,0.0,0.000,M,0.0,M,,*69 $GPRMC,000000.000,V,5159.500,N,01638.026,E,0.00,0.00,010070,,*17 $GPGGA,000000.000,5159.500,N,01638.026,E,0,00,0.0,0.000,M,0.0,M,,*68 $GPRMC,000000.000,V,5159.510,N,01638.016,E,0.00,0.00,010070,,*15 $GPGGA,000000.000,5159.510,N,01638.016,E,0,00,0.0,0.000,M,0.0,M,,*6A $GPRMC,000000.000,V,5159.520,N,01638.003,E,0.00,0.00,010070,,*12 $GPGGA,000000.000,5159.520,N,01638.003,E,0,00,0.0,0.000,M,0.0,M,,*6D $GPRMC,000000.000,V,5159.526,N,01637.985,E,0.00,0.00,010070,,*1C $GPGGA,000000.000,5159.526,N,01637.985,E,0,00,0.0,0.000,M,0.0,M,,*63 $GPRMC,000000.000,V,5159.543,N,01637.859,E,0.00,0.00,010070,,*1F $GPGGA,000000.000,5159.543,N,01637.859,E,0,00,0.0,0.000,M,0.0,M,,*60 $GPRMC,000000.000,V,5159.596,N,01637.656,E,0.00,0.00,010070,,*16 $GPGGA,000000.000,5159.596,N,01637.656,E,0,00,0.0,0.000,M,0.0,M,,*69 $GPRMC,000000.000,V,5159.654,N,01637.461,E,0.00,0.00,010070,,*1D $GPGGA,000000.000,5159.654,N,01637.461,E,0,00,0.0,0.000,M,0.0,M,,*62 $GPRMC,000000.000,V,5159.771,N,01637.031,E,0.00,0.00,010070,,*1A $GPGGA,000000.000,5159.771,N,01637.031,E,0,00,0.0,0.000,M,0.0,M,,*65 $GPRMC,000000.000,V,5159.832,N,01636.816,E,0.00,0.00,010070,,*1E $GPGGA,000000.000,5159.832,N,01636.816,E,0,00,0.0,0.000,M,0.0,M,,*61 $GPRMC,000000.000,V,5159.862,N,01636.704,E,0.00,0.00,010070,,*17 $GPGGA,000000.000,5159.862,N,01636.704,E,0,00,0.0,0.000,M,0.0,M,,*68 $GPRMC,000000.000,V,5159.887,N,01636.610,E,0.00,0.00,010070,,*18 $GPGGA,000000.000,5159.887,N,01636.610,E,0,00,0.0,0.000,M,0.0,M,,*67 $GPRMC,000000.000,V,5159.929,N,01636.512,E,0.00,0.00,010070,,*1C $GPGGA,000000.000,5159.929,N,01636.512,E,0,00,0.0,0.000,M,0.0,M,,*63 $GPRMC,000000.000,V,5159.996,N,01636.342,E,0.00,0.00,010070,,*1B $GPGGA,000000.000,5159.996,N,01636.342,E,0,00,0.0,0.000,M,0.0,M,,*64 $GPRMC,000000.000,V,5200.080,N,01636.122,E,0.00,0.00,010070,,*1E $GPGGA,000000.000,5200.080,N,01636.122,E,0,00,0.0,0.000,M,0.0,M,,*61 $GPRMC,000000.000,V,5200.087,N,01636.098,E,0.00,0.00,010070,,*19 $GPGGA,000000.000,5200.087,N,01636.098,E,0,00,0.0,0.000,M,0.0,M,,*66 $GPRMC,000000.000,V,5200.092,N,01636.060,E,0.00,0.00,010070,,*1A $GPGGA,000000.000,5200.092,N,01636.060,E,0,00,0.0,0.000,M,0.0,M,,*65 $GPRMC,000000.000,V,5200.090,N,01636.019,E,0.00,0.00,010070,,*16 $GPGGA,000000.000,5200.090,N,01636.019,E,0,00,0.0,0.000,M,0.0,M,,*69 $GPRMC,000000.000,V,5200.075,N,01635.811,E,0.00,0.00,010070,,*1E $GPGGA,000000.000,5200.075,N,01635.811,E,0,00,0.0,0.000,M,0.0,M,,*61 $GPRMC,000000.000,V,5200.043,N,01635.383,E,0.00,0.00,010070,,*1B $GPGGA,000000.000,5200.043,N,01635.383,E,0,00,0.0,0.000,M,0.0,M,,*64 $GPRMC,000000.000,V,5200.083,N,01635.173,E,0.00,0.00,010070,,*1A $GPGGA,000000.000,5200.083,N,01635.173,E,0,00,0.0,0.000,M,0.0,M,,*65 $GPRMC,000000.000,V,5200.091,N,01635.130,E,0.00,0.00,010070,,*1E $GPGGA,000000.000,5200.091,N,01635.130,E,0,00,0.0,0.000,M,0.0,M,,*61 $GPRMC,000000.000,V,5200.101,N,01635.103,E,0.00,0.00,010070,,*16 $GPGGA,000000.000,5200.101,N,01635.103,E,0,00,0.0,0.000,M,0.0,M,,*69 $GPRMC,000000.000,V,5200.110,N,01635.097,E,0.00,0.00,010070,,*1A $GPGGA,000000.000,5200.110,N,01635.097,E,0,00,0.0,0.000,M,0.0,M,,*65 $GPRMC,000000.000,V,5200.123,N,01635.081,E,0.00,0.00,010070,,*1D $GPGGA,000000.000,5200.123,N,01635.081,E,0,00,0.0,0.000,M,0.0,M,,*62 $GPRMC,000000.000,V,5200.130,N,01635.071,E,0.00,0.00,010070,,*10 $GPGGA,000000.000,5200.130,N,01635.071,E,0,00,0.0,0.000,M,0.0,M,,*6F $GPRMC,000000.000,V,5200.139,N,01635.059,E,0.00,0.00,010070,,*13 $GPGGA,000000.000,5200.139,N,01635.059,E,0,00,0.0,0.000,M,0.0,M,,*6C $GPRMC,000000.000,V,5200.151,N,01635.018,E,0.00,0.00,010070,,*18 $GPGGA,000000.000,5200.151,N,01635.018,E,0,00,0.0,0.000,M,0.0,M,,*67 $GPRMC,000000.000,V,5200.178,N,01634.915,E,0.00,0.00,010070,,*16 $GPGGA,000000.000,5200.178,N,01634.915,E,0,00,0.0,0.000,M,0.0,M,,*69 $GPRMC,000000.000,V,5200.204,N,01634.821,E,0.00,0.00,010070,,*18 $GPGGA,000000.000,5200.204,N,01634.821,E,0,00,0.0,0.000,M,0.0,M,,*67 $GPRMC,000000.000,V,5200.249,N,01634.704,E,0.00,0.00,010070,,*19 $GPGGA,000000.000,5200.249,N,01634.704,E,0,00,0.0,0.000,M,0.0,M,,*66 $GPRMC,000000.000,V,5200.264,N,01634.670,E,0.00,0.00,010070,,*14 $GPGGA,000000.000,5200.264,N,01634.670,E,0,00,0.0,0.000,M,0.0,M,,*6B $GPRMC,000000.000,V,5200.288,N,01634.623,E,0.00,0.00,010070,,*10 $GPGGA,000000.000,5200.288,N,01634.623,E,0,00,0.0,0.000,M,0.0,M,,*6F $GPRMC,000000.000,V,5200.302,N,01634.573,E,0.00,0.00,010070,,*15 $GPGGA,000000.000,5200.302,N,01634.573,E,0,00,0.0,0.000,M,0.0,M,,*6A $GPRMC,000000.000,V,5200.308,N,01634.539,E,0.00,0.00,010070,,*11 $GPGGA,000000.000,5200.308,N,01634.539,E,0,00,0.0,0.000,M,0.0,M,,*6E $GPRMC,000000.000,V,5200.320,N,01634.479,E,0.00,0.00,010070,,*1E $GPGGA,000000.000,5200.320,N,01634.479,E,0,00,0.0,0.000,M,0.0,M,,*61 $GPRMC,000000.000,V,5200.337,N,01634.382,E,0.00,0.00,010070,,*1B $GPGGA,000000.000,5200.337,N,01634.382,E,0,00,0.0,0.000,M,0.0,M,,*64 $GPRMC,000000.000,V,5200.367,N,01634.211,E,0.00,0.00,010070,,*15 $GPGGA,000000.000,5200.367,N,01634.211,E,0,00,0.0,0.000,M,0.0,M,,*6A $GPRMC,000000.000,V,5200.391,N,01634.075,E,0.00,0.00,010070,,*1C $GPGGA,000000.000,5200.391,N,01634.075,E,0,00,0.0,0.000,M,0.0,M,,*63 $GPRMC,000000.000,V,5200.410,N,01633.972,E,0.00,0.00,010070,,*1B $GPGGA,000000.000,5200.410,N,01633.972,E,0,00,0.0,0.000,M,0.0,M,,*64 $GPRMC,000000.000,V,5200.424,N,01633.872,E,0.00,0.00,010070,,*1D $GPGGA,000000.000,5200.424,N,01633.872,E,0,00,0.0,0.000,M,0.0,M,,*62 $GPRMC,000000.000,V,5200.460,N,01633.569,E,0.00,0.00,010070,,*1A $GPGGA,000000.000,5200.460,N,01633.569,E,0,00,0.0,0.000,M,0.0,M,,*65 $GPRMC,000000.000,V,5200.508,N,01633.119,E,0.00,0.00,010070,,*16 $GPGGA,000000.000,5200.508,N,01633.119,E,0,00,0.0,0.000,M,0.0,M,,*69 $GPRMC,000000.000,V,5200.562,N,01632.623,E,0.00,0.00,010070,,*15 $GPGGA,000000.000,5200.562,N,01632.623,E,0,00,0.0,0.000,M,0.0,M,,*6A $GPRMC,000000.000,V,5200.585,N,01632.411,E,0.00,0.00,010070,,*1F $GPGGA,000000.000,5200.585,N,01632.411,E,0,00,0.0,0.000,M,0.0,M,,*60 $GPRMC,000000.000,V,5200.608,N,01632.188,E,0.00,0.00,010070,,*1C $GPGGA,000000.000,5200.608,N,01632.188,E,0,00,0.0,0.000,M,0.0,M,,*63 $GPRMC,000000.000,V,5200.616,N,01632.114,E,0.00,0.00,010070,,*16 $GPGGA,000000.000,5200.616,N,01632.114,E,0,00,0.0,0.000,M,0.0,M,,*69 $GPRMC,000000.000,V,5200.621,N,01632.060,E,0.00,0.00,010070,,*10 $GPGGA,000000.000,5200.621,N,01632.060,E,0,00,0.0,0.000,M,0.0,M,,*6F $GPRMC,000000.000,V,5200.623,N,01632.030,E,0.00,0.00,010070,,*17 $GPGGA,000000.000,5200.623,N,01632.030,E,0,00,0.0,0.000,M,0.0,M,,*68 $GPRMC,000000.000,V,5200.625,N,01632.008,E,0.00,0.00,010070,,*1A $GPGGA,000000.000,5200.625,N,01632.008,E,0,00,0.0,0.000,M,0.0,M,,*65 $GPRMC,000000.000,V,5200.627,N,01631.983,E,0.00,0.00,010070,,*11 $GPGGA,000000.000,5200.627,N,01631.983,E,0,00,0.0,0.000,M,0.0,M,,*6E $GPRMC,000000.000,V,5200.634,N,01631.947,E,0.00,0.00,010070,,*1B $GPGGA,000000.000,5200.634,N,01631.947,E,0,00,0.0,0.000,M,0.0,M,,*64 $GPRMC,000000.000,V,5200.642,N,01631.916,E,0.00,0.00,010070,,*1E $GPGGA,000000.000,5200.642,N,01631.916,E,0,00,0.0,0.000,M,0.0,M,,*61 $GPRMC,000000.000,V,5200.648,N,01631.902,E,0.00,0.00,010070,,*11 $GPGGA,000000.000,5200.648,N,01631.902,E,0,00,0.0,0.000,M,0.0,M,,*6E $GPRMC,000000.000,V,5200.659,N,01631.873,E,0.00,0.00,010070,,*16 $GPGGA,000000.000,5200.659,N,01631.873,E,0,00,0.0,0.000,M,0.0,M,,*69 $GPRMC,000000.000,V,5200.675,N,01631.839,E,0.00,0.00,010070,,*16 $GPGGA,000000.000,5200.675,N,01631.839,E,0,00,0.0,0.000,M,0.0,M,,*69 $GPRMC,000000.000,V,5200.733,N,01631.781,E,0.00,0.00,010070,,*19 $GPGGA,000000.000,5200.733,N,01631.781,E,0,00,0.0,0.000,M,0.0,M,,*66 $GPRMC,000000.000,V,5200.772,N,01631.745,E,0.00,0.00,010070,,*14 $GPGGA,000000.000,5200.772,N,01631.745,E,0,00,0.0,0.000,M,0.0,M,,*6B $GPRMC,000000.000,V,5200.786,N,01631.732,E,0.00,0.00,010070,,*1F $GPGGA,000000.000,5200.786,N,01631.732,E,0,00,0.0,0.000,M,0.0,M,,*60 $GPRMC,000000.000,V,5200.807,N,01631.793,E,0.00,0.00,010070,,*12 $GPGGA,000000.000,5200.807,N,01631.793,E,0,00,0.0,0.000,M,0.0,M,,*6D $GPRMC,000000.000,V,5200.828,N,01631.848,E,0.00,0.00,010070,,*16 $GPGGA,000000.000,5200.828,N,01631.848,E,0,00,0.0,0.000,M,0.0,M,,*69 $GPRMC,000000.000,V,5200.846,N,01631.925,E,0.00,0.00,010070,,*14 $GPGGA,000000.000,5200.846,N,01631.925,E,0,00,0.0,0.000,M,0.0,M,,*6B $GPRMC,000000.000,V,5200.853,N,01631.978,E,0.00,0.00,010070,,*18 $GPGGA,000000.000,5200.853,N,01631.978,E,0,00,0.0,0.000,M,0.0,M,,*67 $GPRMC,000000.000,V,5200.856,N,01632.023,E,0.00,0.00,010070,,*19 $GPGGA,000000.000,5200.856,N,01632.023,E,0,00,0.0,0.000,M,0.0,M,,*66 $GPRMC,000000.000,V,5200.854,N,01632.055,E,0.00,0.00,010070,,*1A $GPGGA,000000.000,5200.854,N,01632.055,E,0,00,0.0,0.000,M,0.0,M,,*65 $GPRMC,000000.000,V,5200.850,N,01632.078,E,0.00,0.00,010070,,*11 $GPGGA,000000.000,5200.850,N,01632.078,E,0,00,0.0,0.000,M,0.0,M,,*6E $GPRMC,000000.000,V,5200.846,N,01632.101,E,0.00,0.00,010070,,*19 $GPGGA,000000.000,5200.846,N,01632.101,E,0,00,0.0,0.000,M,0.0,M,,*66 $GPRMC,000000.000,V,5200.846,N,01632.119,E,0.00,0.00,010070,,*10 $GPGGA,000000.000,5200.846,N,01632.119,E,0,00,0.0,0.000,M,0.0,M,,*6F $GPRMC,000000.000,V,5200.851,N,01632.145,E,0.00,0.00,010070,,*1F $GPGGA,000000.000,5200.851,N,01632.145,E,0,00,0.0,0.000,M,0.0,M,,*60 $GPRMC,000000.000,V,5200.856,N,01632.171,E,0.00,0.00,010070,,*1F $GPGGA,000000.000,5200.856,N,01632.171,E,0,00,0.0,0.000,M,0.0,M,,*60 $GPRMC,000000.000,V,5200.869,N,01632.206,E,0.00,0.00,010070,,*10 $GPGGA,000000.000,5200.869,N,01632.206,E,0,00,0.0,0.000,M,0.0,M,,*6F $GPRMC,000000.000,V,5200.881,N,01632.240,E,0.00,0.00,010070,,*14 $GPGGA,000000.000,5200.881,N,01632.240,E,0,00,0.0,0.000,M,0.0,M,,*6B $GPRMC,000000.000,V,5200.902,N,01632.294,E,0.00,0.00,010070,,*17 $GPGGA,000000.000,5200.902,N,01632.294,E,0,00,0.0,0.000,M,0.0,M,,*68 $GPRMC,000000.000,V,5200.915,N,01632.321,E,0.00,0.00,010070,,*1E $GPGGA,000000.000,5200.915,N,01632.321,E,0,00,0.0,0.000,M,0.0,M,,*61 $GPRMC,000000.000,V,5200.936,N,01632.369,E,0.00,0.00,010070,,*13 $GPGGA,000000.000,5200.936,N,01632.369,E,0,00,0.0,0.000,M,0.0,M,,*6C $GPRMC,000000.000,V,5200.943,N,01632.393,E,0.00,0.00,010070,,*14 $GPGGA,000000.000,5200.943,N,01632.393,E,0,00,0.0,0.000,M,0.0,M,,*6B $GPRMC,000000.000,V,5200.951,N,01632.415,E,0.00,0.00,010070,,*1E $GPGGA,000000.000,5200.951,N,01632.415,E,0,00,0.0,0.000,M,0.0,M,,*61 $GPRMC,000000.000,V,5200.955,N,01632.438,E,0.00,0.00,010070,,*15 $GPGGA,000000.000,5200.955,N,01632.438,E,0,00,0.0,0.000,M,0.0,M,,*6A $GPRMC,000000.000,V,5200.962,N,01632.462,E,0.00,0.00,010070,,*1E $GPGGA,000000.000,5200.962,N,01632.462,E,0,00,0.0,0.000,M,0.0,M,,*61 $GPRMC,000000.000,V,5200.968,N,01632.481,E,0.00,0.00,010070,,*19 $GPGGA,000000.000,5200.968,N,01632.481,E,0,00,0.0,0.000,M,0.0,M,,*66 $GPRMC,000000.000,V,5200.971,N,01632.497,E,0.00,0.00,010070,,*16 $GPGGA,000000.000,5200.971,N,01632.497,E,0,00,0.0,0.000,M,0.0,M,,*69 $GPRMC,000000.000,V,5200.976,N,01632.512,E,0.00,0.00,010070,,*1D $GPGGA,000000.000,5200.976,N,01632.512,E,0,00,0.0,0.000,M,0.0,M,,*62 $GPRMC,000000.000,V,5200.975,N,01632.520,E,0.00,0.00,010070,,*1F $GPGGA,000000.000,5200.975,N,01632.520,E,0,00,0.0,0.000,M,0.0,M,,*60 $GPRMC,000000.000,V,5200.964,N,01632.528,E,0.00,0.00,010070,,*17 $GPGGA,000000.000,5200.964,N,01632.528,E,0,00,0.0,0.000,M,0.0,M,,*68 $GPRMC,000000.000,V,5200.931,N,01632.536,E,0.00,0.00,010070,,*18 $GPGGA,000000.000,5200.931,N,01632.536,E,0,00,0.0,0.000,M,0.0,M,,*67 $GPRMC,000000.000,V,5200.906,N,01632.541,E,0.00,0.00,010070,,*1C $GPGGA,000000.000,5200.906,N,01632.541,E,0,00,0.0,0.000,M,0.0,M,,*63 $GPRMC,000000.000,V,5200.883,N,01632.545,E,0.00,0.00,010070,,*14 $GPGGA,000000.000,5200.883,N,01632.545,E,0,00,0.0,0.000,M,0.0,M,,*6B $GPRMC,000000.000,V,5200.844,N,01632.543,E,0.00,0.00,010070,,*19 $GPGGA,000000.000,5200.844,N,01632.543,E,0,00,0.0,0.000,M,0.0,M,,*66 $GPRMC,000000.000,V,5200.837,N,01632.542,E,0.00,0.00,010070,,*1C $GPGGA,000000.000,5200.837,N,01632.542,E,0,00,0.0,0.000,M,0.0,M,,*63 $GPRMC,000000.000,V,5200.849,N,01632.609,E,0.00,0.00,010070,,*19 $GPGGA,000000.000,5200.849,N,01632.609,E,0,00,0.0,0.000,M,0.0,M,,*66 $GPRMC,000000.000,V,5200.866,N,01632.707,E,0.00,0.00,010070,,*1B $GPGGA,000000.000,5200.866,N,01632.707,E,0,00,0.0,0.000,M,0.0,M,,*64 $GPRMC,000000.000,V,5200.879,N,01632.781,E,0.00,0.00,010070,,*1B $GPGGA,000000.000,5200.879,N,01632.781,E,0,00,0.0,0.000,M,0.0,M,,*64 $GPRMC,000000.000,V,5200.900,N,01632.907,E,0.00,0.00,010070,,*14 $GPGGA,000000.000,5200.900,N,01632.907,E,0,00,0.0,0.000,M,0.0,M,,*6B $GPRMC,000000.000,V,5200.914,N,01632.981,E,0.00,0.00,010070,,*1F $GPGGA,000000.000,5200.914,N,01632.981,E,0,00,0.0,0.000,M,0.0,M,,*60 $GPRMC,000000.000,V,5200.924,N,01633.038,E,0.00,0.00,010070,,*16 $GPGGA,000000.000,5200.924,N,01633.038,E,0,00,0.0,0.000,M,0.0,M,,*69 $GPRMC,000000.000,V,5200.931,N,01633.069,E,0.00,0.00,010070,,*16 $GPGGA,000000.000,5200.931,N,01633.069,E,0,00,0.0,0.000,M,0.0,M,,*69 $GPRMC,000000.000,V,5200.948,N,01633.135,E,0.00,0.00,010070,,*10 $GPGGA,000000.000,5200.948,N,01633.135,E,0,00,0.0,0.000,M,0.0,M,,*6F $GPRMC,000000.000,V,5200.957,N,01633.160,E,0.00,0.00,010070,,*1E $GPGGA,000000.000,5200.957,N,01633.160,E,0,00,0.0,0.000,M,0.0,M,,*61 $GPRMC,000000.000,V,5200.990,N,01633.234,E,0.00,0.00,010070,,*17 $GPGGA,000000.000,5200.990,N,01633.234,E,0,00,0.0,0.000,M,0.0,M,,*68 $GPRMC,000000.000,V,5201.017,N,01633.295,E,0.00,0.00,010070,,*1B $GPGGA,000000.000,5201.017,N,01633.295,E,0,00,0.0,0.000,M,0.0,M,,*64 $GPRMC,000000.000,V,5201.047,N,01633.351,E,0.00,0.00,010070,,*17 $GPGGA,000000.000,5201.047,N,01633.351,E,0,00,0.0,0.000,M,0.0,M,,*68 $GPRMC,000000.000,V,5201.070,N,01633.395,E,0.00,0.00,010070,,*1B $GPGGA,000000.000,5201.070,N,01633.395,E,0,00,0.0,0.000,M,0.0,M,,*64 $GPRMC,000000.000,V,5201.083,N,01633.412,E,0.00,0.00,010070,,*1F $GPGGA,000000.000,5201.083,N,01633.412,E,0,00,0.0,0.000,M,0.0,M,,*60 $GPRMC,000000.000,V,5201.085,N,01633.455,E,0.00,0.00,010070,,*1A $GPGGA,000000.000,5201.085,N,01633.455,E,0,00,0.0,0.000,M,0.0,M,,*65 $GPRMC,000000.000,V,5201.092,N,01633.471,E,0.00,0.00,010070,,*1A $GPGGA,000000.000,5201.092,N,01633.471,E,0,00,0.0,0.000,M,0.0,M,,*65 $GPRMC,000000.000,V,5201.102,N,01633.505,E,0.00,0.00,010070,,*10 $GPGGA,000000.000,5201.102,N,01633.505,E,0,00,0.0,0.000,M,0.0,M,,*6F $GPRMC,000000.000,V,5201.109,N,01633.522,E,0.00,0.00,010070,,*1E $GPGGA,000000.000,5201.109,N,01633.522,E,0,00,0.0,0.000,M,0.0,M,,*61 $GPRMC,000000.000,V,5201.120,N,01633.552,E,0.00,0.00,010070,,*12 $GPGGA,000000.000,5201.120,N,01633.552,E,0,00,0.0,0.000,M,0.0,M,,*6D $GPRMC,000000.000,V,5201.134,N,01633.601,E,0.00,0.00,010070,,*12 $GPGGA,000000.000,5201.134,N,01633.601,E,0,00,0.0,0.000,M,0.0,M,,*6D $GPRMC,000000.000,V,5201.139,N,01633.626,E,0.00,0.00,010070,,*1A $GPGGA,000000.000,5201.139,N,01633.626,E,0,00,0.0,0.000,M,0.0,M,,*65 $GPRMC,000000.000,V,5201.138,N,01633.658,E,0.00,0.00,010070,,*12 $GPGGA,000000.000,5201.138,N,01633.658,E,0,00,0.0,0.000,M,0.0,M,,*6D $GPRMC,000000.000,V,5201.136,N,01633.686,E,0.00,0.00,010070,,*1F $GPGGA,000000.000,5201.136,N,01633.686,E,0,00,0.0,0.000,M,0.0,M,,*60 $GPRMC,000000.000,V,5201.136,N,01633.719,E,0.00,0.00,010070,,*18 $GPGGA,000000.000,5201.136,N,01633.719,E,0,00,0.0,0.000,M,0.0,M,,*67 $GPRMC,000000.000,V,5201.139,N,01633.762,E,0.00,0.00,010070,,*1B $GPGGA,000000.000,5201.139,N,01633.762,E,0,00,0.0,0.000,M,0.0,M,,*64 $GPRMC,000000.000,V,5201.138,N,01633.805,E,0.00,0.00,010070,,*14 $GPGGA,000000.000,5201.138,N,01633.805,E,0,00,0.0,0.000,M,0.0,M,,*6B $GPRMC,000000.000,V,5201.136,N,01633.847,E,0.00,0.00,010070,,*1C $GPGGA,000000.000,5201.136,N,01633.847,E,0,00,0.0,0.000,M,0.0,M,,*63 $GPRMC,000000.000,V,5201.128,N,01633.892,E,0.00,0.00,010070,,*1B $GPGGA,000000.000,5201.128,N,01633.892,E,0,00,0.0,0.000,M,0.0,M,,*64 $GPRMC,000000.000,V,5201.121,N,01633.958,E,0.00,0.00,010070,,*15 $GPGGA,000000.000,5201.121,N,01633.958,E,0,00,0.0,0.000,M,0.0,M,,*6A $GPRMC,000000.000,V,5201.111,N,01634.027,E,0.00,0.00,010070,,*10 $GPGGA,000000.000,5201.111,N,01634.027,E,0,00,0.0,0.000,M,0.0,M,,*6F $GPRMC,000000.000,V,5201.098,N,01634.104,E,0.00,0.00,010070,,*10 $GPGGA,000000.000,5201.098,N,01634.104,E,0,00,0.0,0.000,M,0.0,M,,*6F $GPRMC,000000.000,V,5201.079,N,01634.200,E,0.00,0.00,010070,,*18 $GPGGA,000000.000,5201.079,N,01634.200,E,0,00,0.0,0.000,M,0.0,M,,*67 $GPRMC,000000.000,V,5201.068,N,01634.228,E,0.00,0.00,010070,,*12 $GPGGA,000000.000,5201.068,N,01634.228,E,0,00,0.0,0.000,M,0.0,M,,*6D $GPRMC,000000.000,V,5201.053,N,01634.272,E,0.00,0.00,010070,,*15 $GPGGA,000000.000,5201.053,N,01634.272,E,0,00,0.0,0.000,M,0.0,M,,*6A $GPRMC,000000.000,V,5201.043,N,01634.309,E,0.00,0.00,010070,,*19 $GPGGA,000000.000,5201.043,N,01634.309,E,0,00,0.0,0.000,M,0.0,M,,*66 $GPRMC,000000.000,V,5201.036,N,01634.346,E,0.00,0.00,010070,,*10 $GPGGA,000000.000,5201.036,N,01634.346,E,0,00,0.0,0.000,M,0.0,M,,*6F $GPRMC,000000.000,V,5201.026,N,01634.386,E,0.00,0.00,010070,,*1D $GPGGA,000000.000,5201.026,N,01634.386,E,0,00,0.0,0.000,M,0.0,M,,*62 $GPRMC,000000.000,V,5201.016,N,01634.457,E,0.00,0.00,010070,,*15 $GPGGA,000000.000,5201.016,N,01634.457,E,0,00,0.0,0.000,M,0.0,M,,*6A $GPRMC,000000.000,V,5201.014,N,01634.476,E,0.00,0.00,010070,,*14 $GPGGA,000000.000,5201.014,N,01634.476,E,0,00,0.0,0.000,M,0.0,M,,*6B $GPRMC,000000.000,V,5201.010,N,01634.493,E,0.00,0.00,010070,,*1B $GPGGA,000000.000,5201.010,N,01634.493,E,0,00,0.0,0.000,M,0.0,M,,*64 $GPRMC,000000.000,V,5201.007,N,01634.494,E,0.00,0.00,010070,,*1A $GPGGA,000000.000,5201.007,N,01634.494,E,0,00,0.0,0.000,M,0.0,M,,*65 $GPRMC,000000.000,V,5200.997,N,01634.495,E,0.00,0.00,010070,,*1A $GPGGA,000000.000,5200.997,N,01634.495,E,0,00,0.0,0.000,M,0.0,M,,*65 $GPRMC,000000.000,V,5200.980,N,01634.491,E,0.00,0.00,010070,,*18 $GPGGA,000000.000,5200.980,N,01634.491,E,0,00,0.0,0.000,M,0.0,M,,*67 $GPRMC,000000.000,V,5200.964,N,01634.490,E,0.00,0.00,010070,,*13 $GPGGA,000000.000,5200.964,N,01634.490,E,0,00,0.0,0.000,M,0.0,M,,*6C $GPRMC,000000.000,V,5200.952,N,01634.488,E,0.00,0.00,010070,,*1F $GPGGA,000000.000,5200.952,N,01634.488,E,0,00,0.0,0.000,M,0.0,M,,*60 $GPRMC,000000.000,V,5200.935,N,01634.487,E,0.00,0.00,010070,,*11 $GPGGA,000000.000,5200.935,N,01634.487,E,0,00,0.0,0.000,M,0.0,M,,*6E $GPRMC,000000.000,V,5200.925,N,01634.496,E,0.00,0.00,010070,,*10 $GPGGA,000000.000,5200.925,N,01634.496,E,0,00,0.0,0.000,M,0.0,M,,*6F $GPRMC,000000.000,V,5200.920,N,01634.506,E,0.00,0.00,010070,,*1D $GPGGA,000000.000,5200.920,N,01634.506,E,0,00,0.0,0.000,M,0.0,M,,*62 $GPRMC,000000.000,V,5200.917,N,01634.517,E,0.00,0.00,010070,,*19 $GPGGA,000000.000,5200.917,N,01634.517,E,0,00,0.0,0.000,M,0.0,M,,*66 $GPRMC,000000.000,V,5200.916,N,01634.552,E,0.00,0.00,010070,,*19 $GPGGA,000000.000,5200.916,N,01634.552,E,0,00,0.0,0.000,M,0.0,M,,*66 $GPRMC,000000.000,V,5200.917,N,01634.573,E,0.00,0.00,010070,,*1B $GPGGA,000000.000,5200.917,N,01634.573,E,0,00,0.0,0.000,M,0.0,M,,*64 $GPRMC,000000.000,V,5200.916,N,01634.604,E,0.00,0.00,010070,,*19 $GPGGA,000000.000,5200.916,N,01634.604,E,0,00,0.0,0.000,M,0.0,M,,*66 $GPRMC,000000.000,V,5200.918,N,01634.634,E,0.00,0.00,010070,,*14 $GPGGA,000000.000,5200.918,N,01634.634,E,0,00,0.0,0.000,M,0.0,M,,*6B $GPRMC,000000.000,V,5200.919,N,01634.664,E,0.00,0.00,010070,,*10 $GPGGA,000000.000,5200.919,N,01634.664,E,0,00,0.0,0.000,M,0.0,M,,*6F $GPRMC,000000.000,V,5200.923,N,01634.722,E,0.00,0.00,010070,,*1A $GPGGA,000000.000,5200.923,N,01634.722,E,0,00,0.0,0.000,M,0.0,M,,*65 $GPRMC,000000.000,V,5200.920,N,01634.773,E,0.00,0.00,010070,,*1D $GPGGA,000000.000,5200.920,N,01634.773,E,0,00,0.0,0.000,M,0.0,M,,*62 $GPRMC,000000.000,V,5200.915,N,01634.838,E,0.00,0.00,010070,,*1B $GPGGA,000000.000,5200.915,N,01634.838,E,0,00,0.0,0.000,M,0.0,M,,*64 $GPRMC,000000.000,V,5200.912,N,01634.888,E,0.00,0.00,010070,,*17 $GPGGA,000000.000,5200.912,N,01634.888,E,0,00,0.0,0.000,M,0.0,M,,*68 $GPRMC,000000.000,V,5200.912,N,01634.898,E,0.00,0.00,010070,,*16 $GPGGA,000000.000,5200.912,N,01634.898,E,0,00,0.0,0.000,M,0.0,M,,*69 $GPRMC,000000.000,V,5200.932,N,01634.904,E,0.00,0.00,010070,,*10 $GPGGA,000000.000,5200.932,N,01634.904,E,0,00,0.0,0.000,M,0.0,M,,*6F $GPRMC,000000.000,V,5200.948,N,01634.910,E,0.00,0.00,010070,,*18 $GPGGA,000000.000,5200.948,N,01634.910,E,0,00,0.0,0.000,M,0.0,M,,*67 $GPRMC,000000.000,V,5200.963,N,01634.914,E,0.00,0.00,010070,,*15 $GPGGA,000000.000,5200.963,N,01634.914,E,0,00,0.0,0.000,M,0.0,M,,*6A $GPRMC,000000.000,V,5200.976,N,01634.924,E,0.00,0.00,010070,,*12 $GPGGA,000000.000,5200.976,N,01634.924,E,0,00,0.0,0.000,M,0.0,M,,*6D $GPRMC,000000.000,V,5200.996,N,01634.937,E,0.00,0.00,010070,,*1E $GPGGA,000000.000,5200.996,N,01634.937,E,0,00,0.0,0.000,M,0.0,M,,*61 $GPRMC,000000.000,V,5201.009,N,01634.951,E,0.00,0.00,010070,,*10 $GPGGA,000000.000,5201.009,N,01634.951,E,0,00,0.0,0.000,M,0.0,M,,*6F $GPRMC,000000.000,V,5201.029,N,01634.967,E,0.00,0.00,010070,,*17 $GPGGA,000000.000,5201.029,N,01634.967,E,0,00,0.0,0.000,M,0.0,M,,*68 $GPRMC,000000.000,V,5201.038,N,01634.976,E,0.00,0.00,010070,,*17 $GPGGA,000000.000,5201.038,N,01634.976,E,0,00,0.0,0.000,M,0.0,M,,*68 $GPRMC,000000.000,V,5201.091,N,01635.021,E,0.00,0.00,010070,,*1E $GPGGA,000000.000,5201.091,N,01635.021,E,0,00,0.0,0.000,M,0.0,M,,*61 $GPRMC,000000.000,V,5201.174,N,01635.092,E,0.00,0.00,010070,,*1C $GPGGA,000000.000,5201.174,N,01635.092,E,0,00,0.0,0.000,M,0.0,M,,*63 $GPRMC,000000.000,V,5201.219,N,01635.130,E,0.00,0.00,010070,,*1D $GPGGA,000000.000,5201.219,N,01635.130,E,0,00,0.0,0.000,M,0.0,M,,*62 $GPRMC,000000.000,V,5201.281,N,01635.183,E,0.00,0.00,010070,,*14 $GPGGA,000000.000,5201.281,N,01635.183,E,0,00,0.0,0.000,M,0.0,M,,*6B $GPRMC,000000.000,V,5201.384,N,01635.267,E,0.00,0.00,010070,,*19 $GPGGA,000000.000,5201.384,N,01635.267,E,0,00,0.0,0.000,M,0.0,M,,*66 $GPRMC,000000.000,V,5201.435,N,01635.311,E,0.00,0.00,010070,,*14 $GPGGA,000000.000,5201.435,N,01635.311,E,0,00,0.0,0.000,M,0.0,M,,*6B $GPRMC,000000.000,V,5201.513,N,01635.372,E,0.00,0.00,010070,,*14 $GPGGA,000000.000,5201.513,N,01635.372,E,0,00,0.0,0.000,M,0.0,M,,*6B $GPRMC,000000.000,V,5201.581,N,01635.434,E,0.00,0.00,010070,,*1A $GPGGA,000000.000,5201.581,N,01635.434,E,0,00,0.0,0.000,M,0.0,M,,*65 $GPRMC,000000.000,V,5201.605,N,01635.455,E,0.00,0.00,010070,,*12 $GPGGA,000000.000,5201.605,N,01635.455,E,0,00,0.0,0.000,M,0.0,M,,*6D $GPRMC,000000.000,V,5201.623,N,01635.469,E,0.00,0.00,010070,,*19 $GPGGA,000000.000,5201.623,N,01635.469,E,0,00,0.0,0.000,M,0.0,M,,*66 $GPRMC,000000.000,V,5201.643,N,01635.482,E,0.00,0.00,010070,,*1A $GPGGA,000000.000,5201.643,N,01635.482,E,0,00,0.0,0.000,M,0.0,M,,*65 $GPRMC,000000.000,V,5201.655,N,01635.497,E,0.00,0.00,010070,,*19 $GPGGA,000000.000,5201.655,N,01635.497,E,0,00,0.0,0.000,M,0.0,M,,*66 $GPRMC,000000.000,V,5201.684,N,01635.551,E,0.00,0.00,010070,,*1E $GPGGA,000000.000,5201.684,N,01635.551,E,0,00,0.0,0.000,M,0.0,M,,*61 $GPRMC,000000.000,V,5201.720,N,01635.621,E,0.00,0.00,010070,,*15 $GPGGA,000000.000,5201.720,N,01635.621,E,0,00,0.0,0.000,M,0.0,M,,*6A $GPRMC,000000.000,V,5201.814,N,01635.747,E,0.00,0.00,010070,,*1C $GPGGA,000000.000,5201.814,N,01635.747,E,0,00,0.0,0.000,M,0.0,M,,*63 $GPRMC,000000.000,V,5201.848,N,01635.792,E,0.00,0.00,010070,,*1D $GPGGA,000000.000,5201.848,N,01635.792,E,0,00,0.0,0.000,M,0.0,M,,*62 $GPRMC,000000.000,V,5201.973,N,01635.980,E,0.00,0.00,010070,,*19 $GPGGA,000000.000,5201.973,N,01635.980,E,0,00,0.0,0.000,M,0.0,M,,*66 $GPRMC,000000.000,V,5202.044,N,01636.093,E,0.00,0.00,010070,,*1F $GPGGA,000000.000,5202.044,N,01636.093,E,0,00,0.0,0.000,M,0.0,M,,*60 $GPRMC,000000.000,V,5202.098,N,01636.174,E,0.00,0.00,010070,,*16 $GPGGA,000000.000,5202.098,N,01636.174,E,0,00,0.0,0.000,M,0.0,M,,*69 $GPRMC,000000.000,V,5202.118,N,01636.212,E,0.00,0.00,010070,,*1C $GPGGA,000000.000,5202.118,N,01636.212,E,0,00,0.0,0.000,M,0.0,M,,*63 $GPRMC,000000.000,V,5202.170,N,01636.228,E,0.00,0.00,010070,,*1B $GPGGA,000000.000,5202.170,N,01636.228,E,0,00,0.0,0.000,M,0.0,M,,*64 $GPRMC,000000.000,V,5202.243,N,01636.268,E,0.00,0.00,010070,,*1C $GPGGA,000000.000,5202.243,N,01636.268,E,0,00,0.0,0.000,M,0.0,M,,*63 $GPRMC,000000.000,V,5202.240,N,01636.285,E,0.00,0.00,010070,,*1C $GPGGA,000000.000,5202.240,N,01636.285,E,0,00,0.0,0.000,M,0.0,M,,*63 $GPRMC,000000.000,V,5202.211,N,01636.328,E,0.00,0.00,010070,,*1E $GPGGA,000000.000,5202.211,N,01636.328,E,0,00,0.0,0.000,M,0.0,M,,*61 $GPRMC,000000.000,V,5202.204,N,01636.334,E,0.00,0.00,010070,,*17 $GPGGA,000000.000,5202.204,N,01636.334,E,0,00,0.0,0.000,M,0.0,M,,*68 $GPRMC,000000.000,V,5202.215,N,01636.353,E,0.00,0.00,010070,,*16 $GPGGA,000000.000,5202.215,N,01636.353,E,0,00,0.0,0.000,M,0.0,M,,*69 $GPRMC,000000.000,V,5202.238,N,01636.374,E,0.00,0.00,010070,,*1C $GPGGA,000000.000,5202.238,N,01636.374,E,0,00,0.0,0.000,M,0.0,M,,*63 $GPRMC,000000.000,V,5202.341,N,01636.444,E,0.00,0.00,010070,,*17 $GPGGA,000000.000,5202.341,N,01636.444,E,0,00,0.0,0.000,M,0.0,M,,*68 $GPRMC,000000.000,V,5202.413,N,01636.490,E,0.00,0.00,010070,,*1E $GPGGA,000000.000,5202.413,N,01636.490,E,0,00,0.0,0.000,M,0.0,M,,*61 $GPRMC,000000.000,V,5202.473,N,01636.518,E,0.00,0.00,010070,,*19 $GPGGA,000000.000,5202.473,N,01636.518,E,0,00,0.0,0.000,M,0.0,M,,*66 $GPRMC,000000.000,V,5202.560,N,01636.549,E,0.00,0.00,010070,,*1E $GPGGA,000000.000,5202.560,N,01636.549,E,0,00,0.0,0.000,M,0.0,M,,*61 $GPRMC,000000.000,V,5202.617,N,01636.563,E,0.00,0.00,010070,,*15 $GPGGA,000000.000,5202.617,N,01636.563,E,0,00,0.0,0.000,M,0.0,M,,*6A $GPRMC,000000.000,V,5202.635,N,01636.575,E,0.00,0.00,010070,,*12 $GPGGA,000000.000,5202.635,N,01636.575,E,0,00,0.0,0.000,M,0.0,M,,*6D $GPRMC,000000.000,V,5202.673,N,01636.601,E,0.00,0.00,010070,,*10 $GPGGA,000000.000,5202.673,N,01636.601,E,0,00,0.0,0.000,M,0.0,M,,*6F $GPRMC,000000.000,V,5202.698,N,01636.626,E,0.00,0.00,010070,,*10 $GPGGA,000000.000,5202.698,N,01636.626,E,0,00,0.0,0.000,M,0.0,M,,*6F $GPRMC,000000.000,V,5202.714,N,01636.649,E,0.00,0.00,010070,,*1C $GPGGA,000000.000,5202.714,N,01636.649,E,0,00,0.0,0.000,M,0.0,M,,*63 $GPRMC,000000.000,V,5202.727,N,01636.665,E,0.00,0.00,010070,,*12 $GPGGA,000000.000,5202.727,N,01636.665,E,0,00,0.0,0.000,M,0.0,M,,*6D $GPRMC,000000.000,V,5202.752,N,01636.642,E,0.00,0.00,010070,,*15 $GPGGA,000000.000,5202.752,N,01636.642,E,0,00,0.0,0.000,M,0.0,M,,*6A $GPRMC,000000.000,V,5202.771,N,01636.646,E,0.00,0.00,010070,,*10 $GPGGA,000000.000,5202.771,N,01636.646,E,0,00,0.0,0.000,M,0.0,M,,*6F $GPRMC,000000.000,V,5202.805,N,01636.661,E,0.00,0.00,010070,,*19 $GPGGA,000000.000,5202.805,N,01636.661,E,0,00,0.0,0.000,M,0.0,M,,*66 $GPRMC,000000.000,V,5202.982,N,01636.733,E,0.00,0.00,010070,,*11 $GPGGA,000000.000,5202.982,N,01636.733,E,0,00,0.0,0.000,M,0.0,M,,*6E $GPRMC,000000.000,V,5203.260,N,01636.850,E,0.00,0.00,010070,,*1D $GPGGA,000000.000,5203.260,N,01636.850,E,0,00,0.0,0.000,M,0.0,M,,*62 $GPRMC,000000.000,V,5203.465,N,01636.935,E,0.00,0.00,010070,,*1C $GPGGA,000000.000,5203.465,N,01636.935,E,0,00,0.0,0.000,M,0.0,M,,*63 $GPRMC,000000.000,V,5203.603,N,01636.991,E,0.00,0.00,010070,,*10 $GPGGA,000000.000,5203.603,N,01636.991,E,0,00,0.0,0.000,M,0.0,M,,*6F $GPRMC,000000.000,V,5203.713,N,01637.041,E,0.00,0.00,010070,,*15 $GPGGA,000000.000,5203.713,N,01637.041,E,0,00,0.0,0.000,M,0.0,M,,*6A $GPRMC,000000.000,V,5203.862,N,01637.295,E,0.00,0.00,010070,,*17 $GPGGA,000000.000,5203.862,N,01637.295,E,0,00,0.0,0.000,M,0.0,M,,*68 $GPRMC,000000.000,V,5203.938,N,01637.415,E,0.00,0.00,010070,,*17 $GPGGA,000000.000,5203.938,N,01637.415,E,0,00,0.0,0.000,M,0.0,M,,*68 $GPRMC,000000.000,V,5204.063,N,01637.600,E,0.00,0.00,010070,,*11 $GPGGA,000000.000,5204.063,N,01637.600,E,0,00,0.0,0.000,M,0.0,M,,*6E $GPRMC,000000.000,V,5204.258,N,01637.853,E,0.00,0.00,010070,,*13 $GPGGA,000000.000,5204.258,N,01637.853,E,0,00,0.0,0.000,M,0.0,M,,*6C $GPRMC,000000.000,V,5204.333,N,01637.948,E,0.00,0.00,010070,,*14 $GPGGA,000000.000,5204.333,N,01637.948,E,0,00,0.0,0.000,M,0.0,M,,*6B $GPRMC,000000.000,V,5204.374,N,01637.986,E,0.00,0.00,010070,,*15 $GPGGA,000000.000,5204.374,N,01637.986,E,0,00,0.0,0.000,M,0.0,M,,*6A $GPRMC,000000.000,V,5204.470,N,01638.068,E,0.00,0.00,010070,,*10 $GPGGA,000000.000,5204.470,N,01638.068,E,0,00,0.0,0.000,M,0.0,M,,*6F $GPRMC,000000.000,V,5204.584,N,01638.154,E,0.00,0.00,010070,,*14 $GPGGA,000000.000,5204.584,N,01638.154,E,0,00,0.0,0.000,M,0.0,M,,*6B $GPRMC,000000.000,V,5204.694,N,01638.243,E,0.00,0.00,010070,,*13 $GPGGA,000000.000,5204.694,N,01638.243,E,0,00,0.0,0.000,M,0.0,M,,*6C $GPRMC,000000.000,V,5204.757,N,01638.304,E,0.00,0.00,010070,,*1F $GPGGA,000000.000,5204.757,N,01638.304,E,0,00,0.0,0.000,M,0.0,M,,*60 $GPRMC,000000.000,V,5204.874,N,01638.426,E,0.00,0.00,010070,,*16 $GPGGA,000000.000,5204.874,N,01638.426,E,0,00,0.0,0.000,M,0.0,M,,*69 $GPRMC,000000.000,V,5204.876,N,01638.438,E,0.00,0.00,010070,,*1B $GPGGA,000000.000,5204.876,N,01638.438,E,0,00,0.0,0.000,M,0.0,M,,*64 $GPRMC,000000.000,V,5204.878,N,01638.445,E,0.00,0.00,010070,,*1F $GPGGA,000000.000,5204.878,N,01638.445,E,0,00,0.0,0.000,M,0.0,M,,*60 $GPRMC,000000.000,V,5204.882,N,01638.445,E,0.00,0.00,010070,,*1A $GPGGA,000000.000,5204.882,N,01638.445,E,0,00,0.0,0.000,M,0.0,M,,*65 $GPRMC,000000.000,V,5204.887,N,01638.442,E,0.00,0.00,010070,,*18 $GPGGA,000000.000,5204.887,N,01638.442,E,0,00,0.0,0.000,M,0.0,M,,*67 $GPRMC,000000.000,V,5204.891,N,01638.435,E,0.00,0.00,010070,,*1F $GPGGA,000000.000,5204.891,N,01638.435,E,0,00,0.0,0.000,M,0.0,M,,*60 $GPRMC,000000.000,V,5204.899,N,01638.434,E,0.00,0.00,010070,,*16 $GPGGA,000000.000,5204.899,N,01638.434,E,0,00,0.0,0.000,M,0.0,M,,*69 $GPRMC,000000.000,V,5204.923,N,01638.451,E,0.00,0.00,010070,,*15 $GPGGA,000000.000,5204.923,N,01638.451,E,0,00,0.0,0.000,M,0.0,M,,*6A $GPRMC,000000.000,V,5205.014,N,01638.543,E,0.00,0.00,010070,,*1B $GPGGA,000000.000,5205.014,N,01638.543,E,0,00,0.0,0.000,M,0.0,M,,*64 $GPRMC,000000.000,V,5205.043,N,01638.564,E,0.00,0.00,010070,,*1C $GPGGA,000000.000,5205.043,N,01638.564,E,0,00,0.0,0.000,M,0.0,M,,*63 $GPRMC,000000.000,V,5205.070,N,01638.578,E,0.00,0.00,010070,,*11 $GPGGA,000000.000,5205.070,N,01638.578,E,0,00,0.0,0.000,M,0.0,M,,*6E $GPRMC,000000.000,V,5205.089,N,01638.596,E,0.00,0.00,010070,,*17 $GPGGA,000000.000,5205.089,N,01638.596,E,0,00,0.0,0.000,M,0.0,M,,*68 $GPRMC,000000.000,V,5205.111,N,01638.618,E,0.00,0.00,010070,,*12 $GPGGA,000000.000,5205.111,N,01638.618,E,0,00,0.0,0.000,M,0.0,M,,*6D $GPRMC,000000.000,V,5205.103,N,01638.637,E,0.00,0.00,010070,,*1C $GPGGA,000000.000,5205.103,N,01638.637,E,0,00,0.0,0.000,M,0.0,M,,*63 $GPRMC,000000.000,V,5205.102,N,01638.657,E,0.00,0.00,010070,,*1B $GPGGA,000000.000,5205.102,N,01638.657,E,0,00,0.0,0.000,M,0.0,M,,*64 $GPRMC,000000.000,V,5205.110,N,01638.667,E,0.00,0.00,010070,,*1B $GPGGA,000000.000,5205.110,N,01638.667,E,0,00,0.0,0.000,M,0.0,M,,*64 $GPRMC,000000.000,V,5205.118,N,01638.684,E,0.00,0.00,010070,,*1E $GPGGA,000000.000,5205.118,N,01638.684,E,0,00,0.0,0.000,M,0.0,M,,*61 $GPRMC,000000.000,V,5205.134,N,01638.707,E,0.00,0.00,010070,,*1A $GPGGA,000000.000,5205.134,N,01638.707,E,0,00,0.0,0.000,M,0.0,M,,*65 $GPRMC,000000.000,V,5205.148,N,01638.720,E,0.00,0.00,010070,,*14 $GPGGA,000000.000,5205.148,N,01638.720,E,0,00,0.0,0.000,M,0.0,M,,*6B $GPRMC,000000.000,V,5205.160,N,01638.734,E,0.00,0.00,010070,,*1B $GPGGA,000000.000,5205.160,N,01638.734,E,0,00,0.0,0.000,M,0.0,M,,*64